Observation data for Stinnett on 11/11/2019      Previous  Date       Current Mesonet Observations  Soil Data  Daily Summary Page  Observations in Plain Language
KST3 110600Z 00022KT 06/01 A2994 RMK A01 T00580007  RH  070%=      5-min Rain = 0
KST3 110601Z 00021KT 06/01 A2994 RMK A01 T00580007  RH  070%=      5-min Rain = 0
KST3 110602Z 00021KT 06/01 A2994 RMK A01 T00580007  RH  070%=      5-min Rain = 0
KST3 110603Z 00019KT 06/01 A2994 RMK A01 T00580007  RH  070%=      5-min Rain = 0
KST3 110604Z 00019KT 06/01 A2994 RMK A01 T00570007  RH  070%=      5-min Rain = 0
KST3 110605Z 00020KT 06/01 A2994 RMK A01 T00570007  RH  070%=      5-min Rain = 0
KST3 110606Z 00021KT 06/01 A2994 RMK A01 T00570007  RH  070%=      5-min Rain = 0
KST3 110607Z 36018G23KT 06/01 A2994 RMK A01 T00560007  RH  070%=      5-min Rain = 0
KST3 110608Z 00020KT 06/01 A2994 RMK A01 T00560006  RH  071%=      5-min Rain = 0
KST3 110609Z 00019G26KT 06/01 A2994 RMK A01 T00550007  RH  071%=      5-min Rain = 0
KST3 110610Z 00022G27KT 06/01 A2995 RMK A01 T00550006  RH  071%=      5-min Rain = 0
KST3 110611Z 00019G25KT 06/01 A2994 RMK A01 T00550006  RH  071%=      5-min Rain = 0
KST3 110612Z 00019KT 05/01 A2994 RMK A01 T00540006  RH  071%=      5-min Rain = 0
KST3 110613Z 36021KT 05/01 A2994 RMK A01 T00540006  RH  071%=      5-min Rain = 0
KST3 110614Z 36021G27KT 05/01 A2994 RMK A01 T00540006  RH  071%=      5-min Rain = 0
KST3 110615Z 00023KT 05/01 A2994 RMK A01 T00540006  RH  071%=      5-min Rain = 0
KST3 110616Z 36021G26KT 05/01 A2994 RMK A01 T00540006  RH  071%=      5-min Rain = 0
KST3 110617Z 00021KT 05/01 A2994 RMK A01 T00540006  RH  071%=      5-min Rain = 0
KST3 110618Z 00020KT 05/01 A2995 RMK A01 T00540006  RH  071%=      5-min Rain = 0
KST3 110619Z 36021KT 05/01 A2994 RMK A01 T00530006  RH  071%=      5-min Rain = 0
KST3 110620Z 00023KT 05/01 A2995 RMK A01 T00530006  RH  071%=      5-min Rain = 0
KST3 110621Z 00021KT 05/01 A2995 RMK A01 T00540006  RH  071%=      5-min Rain = 0
KST3 110622Z 00022G27KT 05/01 A2995 RMK A01 T00530006  RH  071%=      5-min Rain = 0
KST3 110623Z 00023G28KT 05/01 A2995 RMK A01 T00530006  RH  072%=      5-min Rain = 0
KST3 110624Z 01021G26KT 05/01 A2995 RMK A01 T00530006  RH  072%=      5-min Rain = 0
KST3 110625Z 00021G27KT 05/01 A2995 RMK A01 T00530006  RH  072%=      5-min Rain = 0
KST3 110626Z 01021KT 05/01 A2995 RMK A01 T00530006  RH  072%=      5-min Rain = 0
KST3 110627Z 01021KT 05/01 A2995 RMK A01 T00530006  RH  072%=      5-min Rain = 0
KST3 110628Z 01023KT 05/01 A2995 RMK A01 T00530006  RH  072%=      5-min Rain = 0
KST3 110629Z 01023KT 05/01 A2995 RMK A01 T00530006  RH  072%=      5-min Rain = 0
KST3 110630Z 00023KT 05/01 A2995 RMK A01 T00530007  RH  072%=      5-min Rain = 0
KST3 110631Z 00023KT 05/01 A2995 RMK A01 T00530007  RH  072%=      5-min Rain = 0
KST3 110632Z 01024KT 05/01 A2995 RMK A01 T00530007  RH  072%=      5-min Rain = 0
KST3 110633Z 01022G27KT 05/01 A2995 RMK A01 T00530007  RH  072%=      5-min Rain = 0
KST3 110634Z 01023KT 05/01 A2995 RMK A01 T00530007  RH  072%=      5-min Rain = 0
KST3 110635Z 01023KT 05/01 A2995 RMK A01 T00520007  RH  072%=      5-min Rain = 0
KST3 110636Z 00023KT 05/01 A2995 RMK A01 T00520007  RH  072%=      5-min Rain = 0
KST3 110637Z 00019KT 05/01 A2996 RMK A01 T00520007  RH  072%=      5-min Rain = 0
KST3 110638Z 01021G26KT 05/01 A2996 RMK A01 T00520007  RH  073%=      5-min Rain = 0
KST3 110639Z 01021G26KT 05/01 A2996 RMK A01 T00510007  RH  073%=      5-min Rain = 0
KST3 110640Z 00022G28KT 05/01 A2996 RMK A01 T00510007  RH  073%=      5-min Rain = 0
KST3 110641Z 01021KT 05/01 A2996 RMK A01 T00520007  RH  073%=      5-min Rain = 0
KST3 110642Z 01019KT 05/01 A2996 RMK A01 T00510007  RH  073%=      5-min Rain = 0
KST3 110643Z 01023KT 05/01 A2996 RMK A01 T00510007  RH  073%=      5-min Rain = 0
KST3 110644Z 01021G26KT 05/01 A2996 RMK A01 T00510007  RH  073%=      5-min Rain = 0
KST3 110645Z 01020G25KT 05/01 A2996 RMK A01 T00510007  RH  073%=      5-min Rain = 0
KST3 110646Z 01019KT 05/01 A2996 RMK A01 T00510007  RH  074%=      5-min Rain = 0
KST3 110647Z 01020KT 05/01 A2996 RMK A01 T00500007  RH  074%=      5-min Rain = 0
KST3 110648Z 01020KT 05/01 A2996 RMK A01 T00500007  RH  074%=      5-min Rain = 0
KST3 110649Z 01023KT 05/01 A2996 RMK A01 T00500007  RH  074%=      5-min Rain = 0
KST3 110650Z 01020KT 05/01 A2996 RMK A01 T00500008  RH  074%=      5-min Rain = 0
KST3 110651Z 01019KT 05/01 A2996 RMK A01 T00500007  RH  074%=      5-min Rain = 0
KST3 110652Z 01021G27KT 05/01 A2996 RMK A01 T00500007  RH  074%=      5-min Rain = 0
KST3 110653Z 01023G28KT 05/01 A2996 RMK A01 T00490007  RH  074%=      5-min Rain = 0
KST3 110654Z 01021G26KT 05/01 A2996 RMK A01 T00490007  RH  074%=      5-min Rain = 0
KST3 110655Z 01021KT 05/01 A2996 RMK A01 T00490007  RH  074%=      5-min Rain = 0
KST3 110656Z 01022KT 05/01 A2997 RMK A01 T00490007  RH  074%=      5-min Rain = 0
KST3 110657Z 01021G26KT 05/01 A2997 RMK A01 T00490007  RH  074%=      5-min Rain = 0
KST3 110658Z 01019G25KT 05/01 A2997 RMK A01 T00490007  RH  074%=      5-min Rain = 0
KST3 110659Z 01022G27KT 05/01 A2997 RMK A01 T00490008  RH  075%=      5-min Rain = 0
KST3 110700Z 01023KT 05/01 A2997 RMK A01 T00480007  RH  075%=      5-min Rain = 0
KST3 110701Z 01019G24KT 05/01 A2997 RMK A01 T00490008  RH  075%=      5-min Rain = 0
KST3 110702Z 01021KT 05/01 A2997 RMK A01 T00480007  RH  075%=      5-min Rain = 0
KST3 110703Z 02022KT 05/01 A2997 RMK A01 T00480008  RH  075%=      5-min Rain = 0
KST3 110704Z 01021KT 05/01 A2997 RMK A01 T00480008  RH  075%=      5-min Rain = 0
KST3 110705Z 01020G26KT 05/01 A2997 RMK A01 T00480007  RH  075%=      5-min Rain = 0
KST3 110706Z 01020G25KT 05/01 A2997 RMK A01 T00480008  RH  075%=      5-min Rain = 0
KST3 110707Z 01022KT 05/01 A2997 RMK A01 T00480008  RH  075%=      5-min Rain = 0
KST3 110708Z 02023KT 05/01 A2997 RMK A01 T00480008  RH  075%=      5-min Rain = 0
KST3 110709Z 02023G28KT 05/01 A2997 RMK A01 T00480008  RH  075%=      5-min Rain = 0
KST3 110710Z 02021KT 05/01 A2997 RMK A01 T00490008  RH  075%=      5-min Rain = 0
KST3 110711Z 01020KT 05/01 A2997 RMK A01 T00490009  RH  075%=      5-min Rain = 0
KST3 110712Z 02024KT 05/01 A2997 RMK A01 T00480008  RH  075%=      5-min Rain = 0
KST3 110713Z 02024KT 05/01 A2997 RMK A01 T00480008  RH  075%=      5-min Rain = 0
KST3 110714Z 02021KT 05/01 A2997 RMK A01 T00490008  RH  075%=      5-min Rain = 0
KST3 110715Z 02025KT 05/01 A2997 RMK A01 T00490008  RH  075%=      5-min Rain = 0
KST3 110716Z 02023G28KT 05/01 A2997 RMK A01 T00490009  RH  075%=      5-min Rain = 0
KST3 110717Z 01027G32KT 05/01 A2997 RMK A01 T00490008  RH  075%=      5-min Rain = 0
KST3 110718Z 01025KT 05/01 A2997 RMK A01 T00490009  RH  075%=      5-min Rain = 0
KST3 110719Z 01026G31KT 05/01 A2997 RMK A01 T00500009  RH  075%=      5-min Rain = 0
KST3 110720Z 01026KT 05/01 A2997 RMK A01 T00490008  RH  075%=      5-min Rain = 0
KST3 110721Z 02025KT 05/01 A2997 RMK A01 T00490009  RH  075%=      5-min Rain = 0
KST3 110722Z 01025KT 05/01 A2996 RMK A01 T00490009  RH  075%=      5-min Rain = 0
KST3 110723Z 01026KT 05/01 A2996 RMK A01 T00490009  RH  075%=      5-min Rain = 0
KST3 110724Z 01023G29KT 05/01 A2996 RMK A01 T00490009  RH  075%=      5-min Rain = 0
KST3 110725Z 01023G28KT 05/01 A2997 RMK A01 T00480008  RH  075%=      5-min Rain = 0
KST3 110726Z 01022G29KT 05/01 A2997 RMK A01 T00470008  RH  076%=      5-min Rain = 0
KST3 110727Z 01027G32KT 05/01 A2997 RMK A01 T00470008  RH  076%=      5-min Rain = 0
KST3 110728Z 01027KT 05/01 A2997 RMK A01 T00470008  RH  076%=      5-min Rain = 0
KST3 110729Z 01025G30KT 05/01 A2997 RMK A01 T00470008  RH  076%=      5-min Rain = 0
KST3 110730Z 01027KT 05/01 A2997 RMK A01 T00470007  RH  075%=      5-min Rain = 0
KST3 110731Z 01026KT 05/01 A2997 RMK A01 T00470007  RH  075%=      5-min Rain = 0
KST3 110732Z 01026G32KT 05/01 A2997 RMK A01 T00470007  RH  075%=      5-min Rain = 0
KST3 110733Z 01029G34KT 05/01 A2997 RMK A01 T00470007  RH  075%=      5-min Rain = 0
KST3 110734Z 01029G34KT 05/01 A2997 RMK A01 T00470007  RH  075%=      5-min Rain = 0
KST3 110735Z 01026G31KT 05/01 A2998 RMK A01 T00470007  RH  075%=      5-min Rain = 0
KST3 110736Z 01026G31KT 05/01 A2998 RMK A01 T00470007  RH  075%=      5-min Rain = 0
KST3 110737Z 01028G33KT 05/01 A2998 RMK A01 T00470007  RH  075%=      5-min Rain = 0
KST3 110738Z 01025G30KT 05/01 A2998 RMK A01 T00470007  RH  075%=      5-min Rain = 0
KST3 110739Z 01025G33KT 05/01 A2998 RMK A01 T00460006  RH  075%=      5-min Rain = 0
KST3 110740Z 01028G33KT 05/01 A2998 RMK A01 T00460006  RH  075%=      5-min Rain = 0
KST3 110741Z 01027G32KT 05/01 A2998 RMK A01 T00450006  RH  076%=      5-min Rain = 0
KST3 110742Z 01029G36KT 05/01 A2998 RMK A01 T00450005  RH  075%=      5-min Rain = 0
KST3 110743Z 01027G32KT 05/01 A2999 RMK A01 T00450005  RH  075%=      5-min Rain = 0
KST3 110744Z 01028KT 04/01 A2999 RMK A01 T00440005  RH  075%=      5-min Rain = 0
KST3 110745Z 01028G34KT 04/01 A2999 RMK A01 T00440005  RH  075%=      5-min Rain = 0
KST3 110746Z 01029G34KT 04/01 A2999 RMK A01 T00440005  RH  075%=      5-min Rain = 0
KST3 110747Z 01026KT 04/00 A2999 RMK A01 T00440004  RH  075%=      5-min Rain = 0
KST3 110748Z 01026G33KT 04/00 A2999 RMK A01 T00440004  RH  076%=      5-min Rain = 0
KST3 110749Z 01029G37KT 04/00 A2999 RMK A01 T00430004  RH  076%=      5-min Rain = 0
KST3 110750Z 01029KT 04/00 A2999 RMK A01 T00430004  RH  076%=      5-min Rain = 0
KST3 110751Z 01027KT 04/00 A30 RMK A01 T00430004  RH  075%=      5-min Rain = 0
KST3 110752Z 01028KT 04/00 A30 RMK A01 T00430004  RH  075%=      5-min Rain = 0
KST3 110753Z 01030G35KT 04/00 A30 RMK A01 T00430004  RH  075%=      5-min Rain = 0
KST3 110754Z 01030KT 04/00 A30 RMK A01 T00430003  RH  075%=      5-min Rain = 0
KST3 110755Z 01023G30KT 04/00 A30 RMK A01 T00430003  RH  075%=      5-min Rain = 0
KST3 110756Z 02023G28KT 04/00 A30 RMK A01 T00430004  RH  076%=      5-min Rain = 0
KST3 110757Z 02025KT 04/00 A3001 RMK A01 T00430004  RH  076%=      5-min Rain = 0
KST3 110758Z 01024KT 04/00 A3001 RMK A01 T00430004  RH  076%=      5-min Rain = 0
KST3 110759Z 01021KT 04/00 A3001 RMK A01 T00430004  RH  076%=      5-min Rain = 0
KST3 110800Z 01023KT 04/00 A3001 RMK A01 T00430004  RH  076%=      5-min Rain = 0
KST3 110801Z 01025G31KT 04/00 A3002 RMK A01 T00430004  RH  076%=      5-min Rain = 0
KST3 110802Z 01026KT 04/00 A3002 RMK A01 T00420003  RH  075%=      5-min Rain = 0
KST3 110803Z 01023G29KT 04/00 A3002 RMK A01 T00410002  RH  075%=      5-min Rain = 0
KST3 110804Z 01030KT 04/00 A3002 RMK A01 T00400001  RH  075%=      5-min Rain = 0
KST3 110805Z 01031G36KT 04/M00 A3002 RMK A01 T00391001  RH  075%=      5-min Rain = 0
KST3 110806Z 02026G31KT 04/M00 A3002 RMK A01 T00371002  RH  075%=      5-min Rain = 0
KST3 110807Z 01028G34KT 04/M00 A3002 RMK A01 T00371002  RH  076%=      5-min Rain = 0
KST3 110808Z 02025KT 04/M00 A3002 RMK A01 T00361001  RH  076%=      5-min Rain = 0
KST3 110809Z 02031G39KT 04/M00 A3003 RMK A01 T00361001  RH  077%=      5-min Rain = 0
KST3 110810Z 02027G33KT 04/M00 A3002 RMK A01 T00361001  RH  077%=      5-min Rain = 0
KST3 110811Z 02025G31KT 04/M00 A3002 RMK A01 T00361001  RH  077%=      5-min Rain = 0
KST3 110812Z 01031G38KT 04/M00 A3003 RMK A01 T00351001  RH  077%=      5-min Rain = 0
KST3 110813Z 01030G35KT 03/M00 A3003 RMK A01 T00341002  RH  077%=      5-min Rain = 0
KST3 110814Z 01029G36KT 03/M00 A3003 RMK A01 T00331004  RH  077%=      5-min Rain = 0
KST3 110815Z 01029G34KT 03/M00 A3003 RMK A01 T00321004  RH  077%=      5-min Rain = 0
KST3 110816Z 02031KT 03/M00 A3003 RMK A01 T00311004  RH  078%=      5-min Rain = 0
KST3 110817Z 02031KT 03/M00 A3003 RMK A01 T00301004  RH  078%=      5-min Rain = 0
KST3 110818Z 02029KT 03/M00 A3004 RMK A01 T00291004  RH  079%=      5-min Rain = 0
KST3 110819Z 01028G35KT 03/M00 A3004 RMK A01 T00291004  RH  079%=      5-min Rain = 0
KST3 110820Z 02032G37KT 03/M01 A3004 RMK A01 T00291005  RH  078%=      5-min Rain = 0
KST3 110821Z 02026KT 03/M01 A3004 RMK A01 T00281006  RH  078%=      5-min Rain = 0
KST3 110822Z 01025KT 03/M01 A3004 RMK A01 T00281006  RH  078%=      5-min Rain = 0
KST3 110823Z 01025G31KT 03/M01 A3004 RMK A01 T00281005  RH  079%=      5-min Rain = 0
KST3 110824Z 01026G31KT 03/M01 A3004 RMK A01 T00271006  RH  079%=      5-min Rain = 0
KST3 110825Z 01028G35KT 03/M01 A3004 RMK A01 T00271007  RH  078%=      5-min Rain = 0
KST3 110826Z 01034G39KT 03/M01 A3005 RMK A01 T00261007  RH  079%=      5-min Rain = 0
KST3 110827Z 01035G40KT 03/M01 A3005 RMK A01 T00251007  RH  080%=      5-min Rain = 0
KST3 110828Z 02028G38KT 02/M01 A3005 RMK A01 T00241005  RH  081%=      5-min Rain = 0
KST3 110829Z 02033G39KT 02/M01 A3005 RMK A01 T00241005  RH  081%=      5-min Rain = 0
KST3 110830Z 01031G36KT 02/M01 A3005 RMK A01 T00231006  RH  081%=      5-min Rain = 0
KST3 110831Z 01033G38KT 02/M01 A3005 RMK A01 T00231005  RH  082%=      5-min Rain = 0
KST3 110832Z 02030G36KT 02/M01 A3006 RMK A01 T00231006  RH  081%=      5-min Rain = 0
KST3 110833Z 01028G34KT 02/M01 A3005 RMK A01 T00221006  RH  081%=      5-min Rain = 0
KST3 110834Z 01028G36KT 02/M01 A3006 RMK A01 T00231007  RH  081%=      5-min Rain = 0
KST3 110835Z 01028G35KT 02/M01 A3006 RMK A01 T00231006  RH  081%=      5-min Rain = 0
KST3 110836Z 01025G30KT 02/M01 A3006 RMK A01 T00231006  RH  081%=      5-min Rain = 0
KST3 110837Z 01029KT 02/M01 A3006 RMK A01 T00231007  RH  081%=      5-min Rain = 0
KST3 110838Z 00030KT 02/M01 A3006 RMK A01 T00231006  RH  081%=      5-min Rain = 0
KST3 110839Z 01027KT 02/M01 A3006 RMK A01 T00231006  RH  081%=      5-min Rain = 0
KST3 110840Z 01028G35KT 02/M01 A3006 RMK A01 T00231006  RH  081%=      5-min Rain = 0
KST3 110841Z 01031KT 02/M01 A3006 RMK A01 T00221006  RH  082%=      5-min Rain = 0
KST3 110842Z 01031G36KT 02/M01 A3007 RMK A01 T00211006  RH  082%=      5-min Rain = 0
KST3 110843Z 01032KT 02/M01 A3007 RMK A01 T00211007  RH  082%=      5-min Rain = 0
KST3 110844Z 36029KT 02/M01 A3006 RMK A01 T00211007  RH  082%=      5-min Rain = 0
KST3 110845Z 00032G39KT 02/M01 A3007 RMK A01 T00201007  RH  082%=      5-min Rain = 0
KST3 110846Z 01030G35KT 02/M01 A3007 RMK A01 T00201007  RH  083%=      5-min Rain = 0
KST3 110847Z 01030KT 02/M01 A3007 RMK A01 T00191007  RH  083%=      5-min Rain = 0
KST3 110848Z 01032G41KT 02/M01 A3007 RMK A01 T00181007  RH  083%=      5-min Rain = 0
KST3 110849Z 01034G41KT 02/M01 A3007 RMK A01 T00171008  RH  084%=      5-min Rain = 0
KST3 110850Z 01034KT 02/M01 A3007 RMK A01 T00161008  RH  084%=      5-min Rain = 0
KST3 110851Z 01033G39KT 02/M01 A3008 RMK A01 T00161007  RH  085%=      5-min Rain = 0
KST3 110852Z 01031KT 02/M01 A3007 RMK A01 T00151008  RH  085%=      5-min Rain = 0
KST3 110853Z 01030G35KT 02/M01 A3007 RMK A01 T00151007  RH  085%=      5-min Rain = 0
KST3 110854Z 01030KT 02/M01 A3008 RMK A01 T00151007  RH  085%=      5-min Rain = 0
KST3 110855Z 01033KT 02/M01 A3007 RMK A01 T00151008  RH  085%=      5-min Rain = 0
KST3 110856Z 01030G36KT 02/M01 A3007 RMK A01 T00151008  RH  085%=      5-min Rain = 0
KST3 110857Z 01033G40KT 02/M01 A3007 RMK A01 T00151008  RH  085%=      5-min Rain = 0
KST3 110858Z 01031G36KT 02/M01 A3008 RMK A01 T00151008  RH  085%=      5-min Rain = 0
KST3 110859Z 01036KT 02/M01 A3008 RMK A01 T00151009  RH  085%=      5-min Rain = 0
KST3 110900Z 01032G39KT 01/M01 A3008 RMK A01 T00141009  RH  085%=      5-min Rain = 0
KST3 110901Z 01033G39KT 01/M01 A3008 RMK A01 T00131009  RH  085%=      5-min Rain = 0
KST3 110902Z 01031G37KT 01/M01 A3008 RMK A01 T00121009  RH  086%=      5-min Rain = 0
KST3 110903Z 01029G34KT 01/M01 A3008 RMK A01 T00111009  RH  086%=      5-min Rain = 0
KST3 110904Z 01033G42KT 01/M01 A3008 RMK A01 T00091011  RH  086%=      5-min Rain = 0
KST3 110905Z 00029G35KT 01/M01 A3008 RMK A01 T00071012  RH  087%=      5-min Rain = 0
KST3 110906Z 01030G36KT 01/M01 A3008 RMK A01 T00061011  RH  089%=      5-min Rain = 0
KST3 110907Z 01029G40KT 01/M01 A3008 RMK A01 T00051011  RH  089%=      5-min Rain = 0
KST3 110908Z 01030G35KT 00/M01 A3008 RMK A01 T00041010  RH  090%=      5-min Rain = 0
KST3 110909Z 01035G41KT 00/M01 A3008 RMK A01 T00031011  RH  090%=      5-min Rain = 0
KST3 110910Z 01035G41KT 00/M01 A3009 RMK A01 T00031011  RH  090%=      5-min Rain = 0
KST3 110911Z 01031KT 00/M01 A3009 RMK A01 T00031011  RH  091%=      5-min Rain = 0
KST3 110912Z 01027G32KT 00/M01 A3009 RMK A01 T00021010  RH  091%=      5-min Rain = 0
KST3 110913Z 01031G37KT 00/M01 A3009 RMK A01 T00021010  RH  092%=      5-min Rain = 0
KST3 110914Z 01034G39KT 00/M01 A3009 RMK A01 T00021010  RH  092%=      5-min Rain = 0
KST3 110915Z 01031G36KT 00/M01 A301 RMK A01 T00011011  RH  092%=      5-min Rain = 0
KST3 110916Z 01033G38KT 00/01 A301 RMK A01 T00000-13  RH  091%=      5-min Rain = 0
KST3 110917Z 01033G41KT M00/M01 A301 RMK A01 T10011014  RH  091%=      5-min Rain = 0
KST3 110918Z 01035G42KT M00/M02 A301 RMK A01 T10031016  RH  090%=      5-min Rain = 0
KST3 110919Z 01037G42KT M00/M02 A301 RMK A01 T10041018  RH  090%=      5-min Rain = 0
KST3 110920Z 01033KT M01/M02 A301 RMK A01 T10051018  RH  091%=      5-min Rain = 0
KST3 110921Z 01034G40KT M01/M02 A301 RMK A01 T10051017  RH  091%=      5-min Rain = 0
KST3 110922Z 01035KT M01/M02 A3011 RMK A01 T10051017  RH  091%=      5-min Rain = 0
KST3 110923Z 01030G37KT M01/M02 A3011 RMK A01 T10051018  RH  091%=      5-min Rain = 0
KST3 110924Z 01027G32KT M01/M02 A3011 RMK A01 T10051018  RH  091%=      5-min Rain = 0
KST3 110925Z 01028G35KT M01/M02 A3011 RMK A01 T10051017  RH  092%=      5-min Rain = 0
KST3 110926Z 01030G35KT M01/M02 A3011 RMK A01 T10051017  RH  092%=      5-min Rain = 0
KST3 110927Z 01028G35KT M01/M02 A3012 RMK A01 T10051018  RH  092%=      5-min Rain = 0
KST3 110928Z 01026G32KT M01/M02 A3012 RMK A01 T10061017  RH  092%=      5-min Rain = 0
KST3 110929Z 01027G32KT M01/M02 A3012 RMK A01 T10061017  RH  092%=      5-min Rain = 0
KST3 110930Z 01029G36KT M01/M02 A3012 RMK A01 T10061017  RH  092%=      5-min Rain = 0
KST3 110931Z 01030G35KT M01/M02 A3013 RMK A01 T10071019  RH  092%=      5-min Rain = 0
KST3 110932Z 01030G38KT M01/M02 A3013 RMK A01 T10081020  RH  091%=      5-min Rain = 0
KST3 110933Z 01036G41KT M01/M02 A3013 RMK A01 T10091022  RH  091%=      5-min Rain = 0
KST3 110934Z 01033G38KT M01/M02 A3013 RMK A01 T10101024  RH  091%=      5-min Rain = 0
KST3 110935Z 02030KT M01/M02 A3013 RMK A01 T10111024  RH  091%=      5-min Rain = 0
KST3 110936Z 02031G37KT M01/M02 A3013 RMK A01 T10111024  RH  091%=      5-min Rain = 0
KST3 110937Z 01029G34KT M01/M02 A3013 RMK A01 T10111024  RH  091%=      5-min Rain = 0
KST3 110938Z 01031G38KT M01/M02 A3014 RMK A01 T10111024  RH  091%=      5-min Rain = 0
KST3 110939Z 01030G35KT M01/M02 A3014 RMK A01 T10111024  RH  091%=      5-min Rain = 0
KST3 110940Z 01029KT M01/M03 A3014 RMK A01 T10111025  RH  091%=      5-min Rain = 0
KST3 110941Z 01030G35KT M01/M03 A3014 RMK A01 T10121025  RH  091%=      5-min Rain = 0
KST3 110942Z 01030KT M01/M03 A3014 RMK A01 T10121026  RH  091%=      5-min Rain = 0
KST3 110943Z 01028G34KT M01/M03 A3014 RMK A01 T10131026  RH  091%=      5-min Rain = 0
KST3 110944Z 01033G39KT M01/M03 A3014 RMK A01 T10131027  RH  091%=      5-min Rain = 0
KST3 110945Z 01029G38KT M01/M03 A3014 RMK A01 T10131027  RH  090%=      5-min Rain = 0
KST3 110946Z 02027KT M01/M03 A3015 RMK A01 T10131027  RH  090%=      5-min Rain = 0
KST3 110947Z 02029G34KT M01/M03 A3015 RMK A01 T10131027  RH  091%=      5-min Rain = 0
KST3 110948Z 02035G42KT M01/M03 A3015 RMK A01 T10141028  RH  090%=      5-min Rain = 0
KST3 110949Z 01030G38KT M01/M03 A3014 RMK A01 T10141028  RH  090%=      5-min Rain = 0
KST3 110950Z 02035KT M01/M03 A3014 RMK A01 T10141028  RH  090%=      5-min Rain = 0
KST3 110951Z 01033G38KT M01/M03 A3014 RMK A01 T10141028  RH  090%=      5-min Rain = 0
KST3 110952Z 01031G38KT M01/M03 A3014 RMK A01 T10141028  RH  090%=      5-min Rain = 0
KST3 110953Z 01029G34KT M01/M03 A3014 RMK A01 T10141027  RH  091%=      5-min Rain = 0
KST3 110954Z 01026G31KT M01/M03 A3014 RMK A01 T10141027  RH  091%=      5-min Rain = 0
KST3 110955Z 01027G33KT M01/M03 A3014 RMK A01 T10141026  RH  091%=      5-min Rain = 0
KST3 110956Z 01034G40KT M01/M03 A3014 RMK A01 T10131026  RH  091%=      5-min Rain = 0
KST3 110957Z 01030G35KT M01/M03 A3014 RMK A01 T10141027  RH  091%=      5-min Rain = 0
KST3 110958Z 01033G38KT M01/M03 A3014 RMK A01 T10141028  RH  090%=      5-min Rain = 0
KST3 110959Z 01031G38KT M02/M03 A3014 RMK A01 T10151029  RH  090%=      5-min Rain = 0
KST3 111000Z 01036KT M02/M03 A3014 RMK A01 T10151029  RH  090%=      5-min Rain = 0
KST3 111001Z 01027G32KT M02/M03 A3014 RMK A01 T10151030  RH  090%=      5-min Rain = 0
KST3 111002Z 01030G35KT M02/M03 A3014 RMK A01 T10151030  RH  090%=      5-min Rain = 0
KST3 111003Z 01028KT M02/M03 A3014 RMK A01 T10151030  RH  090%=      5-min Rain = 0
KST3 111004Z 00028G33KT M02/M03 A3015 RMK A01 T10151030  RH  089%=      5-min Rain = 0
KST3 111005Z 01035G42KT M02/M03 A3015 RMK A01 T10151030  RH  089%=      5-min Rain = 0
KST3 111006Z 01032G41KT M02/M03 A3015 RMK A01 T10151032  RH  088%=      5-min Rain = 0
KST3 111007Z 01029G36KT M02/M03 A3015 RMK A01 T10151032  RH  088%=      5-min Rain = 0
KST3 111008Z 01034KT M02/M03 A3015 RMK A01 T10151032  RH  088%=      5-min Rain = 0
KST3 111009Z 00032KT M02/M03 A3015 RMK A01 T10151032  RH  088%=      5-min Rain = 0
KST3 111010Z 01028G33KT M02/M03 A3015 RMK A01 T10151032  RH  088%=      5-min Rain = 0
KST3 111011Z 01032G38KT M02/M03 A3015 RMK A01 T10151032  RH  088%=      5-min Rain = 0
KST3 111012Z 01030KT M02/M03 A3015 RMK A01 T10151032  RH  088%=      5-min Rain = 0
KST3 111013Z 01034G41KT M02/M03 A3015 RMK A01 T10151033  RH  088%=      5-min Rain = 0
KST3 111014Z 01034G41KT M02/M03 A3015 RMK A01 T10151033  RH  087%=      5-min Rain = 0
KST3 111015Z 01031G43KT M02/M03 A3015 RMK A01 T10151034  RH  087%=      5-min Rain = 0
KST3 111016Z 01032G38KT M02/M03 A3015 RMK A01 T10151034  RH  087%=      5-min Rain = 0
KST3 111017Z 01034G45KT M02/M03 A3015 RMK A01 T10151034  RH  087%=      5-min Rain = 0
KST3 111018Z 01039G44KT M02/M03 A3015 RMK A01 T10151034  RH  087%=      5-min Rain = 0
KST3 111019Z 01037G44KT M02/M04 A3015 RMK A01 T10161035  RH  087%=      5-min Rain = 0
KST3 111020Z 01037G43KT M02/M04 A3015 RMK A01 T10161035  RH  087%=      5-min Rain = 0
KST3 111021Z 01037G44KT M02/M04 A3016 RMK A01 T10161035  RH  087%=      5-min Rain = 0
KST3 111022Z 01032G38KT M02/M04 A3015 RMK A01 T10161035  RH  087%=      5-min Rain = 0
KST3 111023Z 01038G47KT M02/M03 A3016 RMK A01 T10161034  RH  088%=      5-min Rain = 0
KST3 111024Z 01036G41KT M02/M04 A3016 RMK A01 T10171035  RH  088%=      5-min Rain = 0
KST3 111025Z 01035KT M02/M04 A3016 RMK A01 T10171035  RH  088%=      5-min Rain = 0
KST3 111026Z 01033G43KT M02/M03 A3015 RMK A01 T10171034  RH  088%=      5-min Rain = 0
KST3 111027Z 01031G40KT M02/M03 A3015 RMK A01 T10171034  RH  088%=      5-min Rain = 0
KST3 111028Z 01037G47KT M02/M03 A3016 RMK A01 T10171034  RH  088%=      5-min Rain = 0
KST3 111029Z 01036G43KT M02/M04 A3016 RMK A01 T10171035  RH  087%=      5-min Rain = 0
KST3 111030Z 01034G39KT M02/M04 A3016 RMK A01 T10171036  RH  087%=      5-min Rain = 0
KST3 111031Z 01039G46KT M02/M04 A3016 RMK A01 T10171037  RH  087%=      5-min Rain = 0
KST3 111032Z 01039G46KT M02/M04 A3016 RMK A01 T10181038  RH  086%=      5-min Rain = 0
KST3 111033Z 01037G44KT M02/M04 A3017 RMK A01 T10181038  RH  086%=      5-min Rain = 0
KST3 111034Z 01040G49KT M02/M04 A3016 RMK A01 T10181038  RH  086%=      5-min Rain = 0
KST3 111035Z 01038G49KT M02/M04 A3016 RMK A01 T10181038  RH  086%=      5-min Rain = 0
KST3 111036Z 01037G43KT M02/M04 A3017 RMK A01 T10181038  RH  087%=      5-min Rain = 0
KST3 111037Z 01031G37KT M02/M04 A3017 RMK A01 T10181037  RH  087%=      5-min Rain = 0
KST3 111038Z 01033G42KT M02/M04 A3017 RMK A01 T10181036  RH  088%=      5-min Rain = 0
KST3 111039Z 01035G42KT M02/M04 A3017 RMK A01 T10181036  RH  088%=      5-min Rain = 0
KST3 111040Z 01031KT M02/M04 A3017 RMK A01 T10181035  RH  088%=      5-min Rain = 0
KST3 111041Z 01030G36KT M02/M03 A3017 RMK A01 T10181034  RH  089%=      5-min Rain = 0
KST3 111042Z 01035G42KT M02/M03 A3017 RMK A01 T10191034  RH  089%=      5-min Rain = 0
KST3 111043Z 01030KT M02/M03 A3017 RMK A01 T10191034  RH  090%=      5-min Rain = 0
KST3 111044Z 01030G42KT M02/M03 A3018 RMK A01 T10191033  RH  090%=      5-min Rain = 0
KST3 111045Z 00040G45KT M02/M03 A3018 RMK A01 T10191033  RH  090%=      5-min Rain = 0
KST3 111046Z 01037G42KT M02/M03 A3018 RMK A01 T10191033  RH  090%=      5-min Rain = 0
KST3 111047Z 01036G42KT M02/M03 A3018 RMK A01 T10191033  RH  090%=      5-min Rain = 0
KST3 111048Z 01038G45KT M02/M03 A3018 RMK A01 T10191034  RH  090%=      5-min Rain = 0
KST3 111049Z 00038G45KT M02/M03 A3018 RMK A01 T10191034  RH  090%=      5-min Rain = 0
KST3 111050Z 01040G48KT M02/M03 A3018 RMK A01 T10191034  RH  090%=      5-min Rain = 0
KST3 111051Z 01035G41KT M02/M03 A3018 RMK A01 T10191034  RH  090%=      5-min Rain = 0
KST3 111052Z 01035G42KT M02/M03 A3017 RMK A01 T10191033  RH  090%=      5-min Rain = 0
KST3 111053Z 01040G48KT M02/M03 A3018 RMK A01 T10191033  RH  090%=      5-min Rain = 0
KST3 111054Z 01042G50KT M02/M03 A3018 RMK A01 T10201034  RH  090%=      5-min Rain = 0
KST3 111055Z 01041G46KT M02/M04 A3018 RMK A01 T10201035  RH  089%=      5-min Rain = 0
KST3 111056Z 00040G45KT M02/M04 A3018 RMK A01 T10201035  RH  089%=      5-min Rain = 0
KST3 111057Z 01035G40KT M02/M04 A3018 RMK A01 T10201035  RH  089%=      5-min Rain = 0
KST3 111058Z 01040G46KT M02/M03 A3018 RMK A01 T10201034  RH  090%=      5-min Rain = 0
KST3 111059Z 00036G42KT M02/M03 A3018 RMK A01 T10201034  RH  090%=      5-min Rain = 0
KST3 111100Z 00035G47KT M02/M03 A3018 RMK A01 T10201033  RH  091%=      5-min Rain = 0
KST3 111101Z 00037G46KT M02/M03 A3018 RMK A01 T10201032  RH  092%=      5-min Rain = 0
KST3 111102Z 00038G45KT M02/M03 A3018 RMK A01 T10211032  RH  092%=      5-min Rain = 0
KST3 111103Z 00036G41KT M02/M03 A3018 RMK A01 T10211032  RH  092%=      5-min Rain = 0
KST3 111104Z 00035G40KT M02/M03 A3018 RMK A01 T10221032  RH  093%=      5-min Rain = 0
KST3 111105Z 01035G41KT M02/M03 A3018 RMK A01 T10221031  RH  093%=      5-min Rain = 0
KST3 111106Z 00035G42KT M02/M03 A3019 RMK A01 T10221031  RH  093%=      5-min Rain = 0
KST3 111107Z 01035G41KT M02/M03 A3019 RMK A01 T10221031  RH  093%=      5-min Rain = 0
KST3 111108Z 00036G42KT M02/M03 A3019 RMK A01 T10221031  RH  094%=      5-min Rain = 0
KST3 111109Z 01034KT M02/M03 A3019 RMK A01 T10221031  RH  094%=      5-min Rain = 0
KST3 111110Z 36031G36KT M02/M03 A3019 RMK A01 T10221030  RH  094%=      5-min Rain = 0
KST3 111111Z 00032G38KT M02/M03 A3019 RMK A01 T10221029  RH  095%=      5-min Rain = 0
KST3 111112Z 36032G38KT M02/M03 A3019 RMK A01 T10231030  RH  095%=      5-min Rain = 0
KST3 111113Z 00032G37KT M02/M03 A3019 RMK A01 T10241031  RH  095%=      5-min Rain = 0
KST3 111114Z 36032G37KT M03/M03 A302 RMK A01 T10251031  RH  095%=      5-min Rain = 0
KST3 111115Z 36031G36KT M03/M03 A302 RMK A01 T10261032  RH  095%=      5-min Rain = 0
KST3 111116Z 00029G34KT M03/M03 A302 RMK A01 T10261033  RH  096%=      5-min Rain = 0
KST3 111117Z 00028G36KT M03/M03 A302 RMK A01 T10271032  RH  096%=      5-min Rain = 0
KST3 111118Z 36033G38KT M03/M03 A302 RMK A01 T10271032  RH  096%=      5-min Rain = 0
KST3 111119Z 00032KT M03/M03 A302 RMK A01 T10281033  RH  096%=      5-min Rain = 0
KST3 111120Z 00032KT M03/M03 A302 RMK A01 T10281033  RH  096%=      5-min Rain = 0
KST3 111121Z 00032KT M03/M03 A302 RMK A01 T10281033  RH  097%=      5-min Rain = 0
KST3 111122Z 01033KT M03/M03 A302 RMK A01 T10281033  RH  097%=      5-min Rain = 0
KST3 111123Z 01031KT M03/M03 A302 RMK A01 T10281034  RH  096%=      5-min Rain = 0
KST3 111124Z 01030G36KT M03/M04 A3021 RMK A01 T10281035  RH  095%=      5-min Rain = 0
KST3 111125Z 01032G40KT M03/M04 A3021 RMK A01 T10281036  RH  094%=      5-min Rain = 0
KST3 111126Z 00024KT M03/M04 A3021 RMK A01 T10281036  RH  094%=      5-min Rain = 0
KST3 111127Z 00033G38KT M03/M04 A3021 RMK A01 T10281035  RH  095%=      5-min Rain = 0
KST3 111128Z 00036G42KT M03/M04 A3021 RMK A01 T10291036  RH  095%=      5-min Rain = 0
KST3 111129Z 00035KT M03/M04 A3021 RMK A01 T10301038  RH  094%=      5-min Rain = 0
KST3 111130Z 00037G44KT M03/M04 A3021 RMK A01 T10311040  RH  094%=      5-min Rain = 0
KST3 111131Z 01035G42KT M03/M04 A3021 RMK A01 T10311042  RH  093%=      5-min Rain = 0
KST3 111132Z 00041G48KT M03/M04 A3021 RMK A01 T10321044  RH  091%=      5-min Rain = 0
KST3 111133Z 01038G43KT M03/M05 A3022 RMK A01 T10331046  RH  091%=      5-min Rain = 0
KST3 111134Z 01034G40KT M03/M05 A3021 RMK A01 T10331046  RH  091%=      5-min Rain = 0
KST3 111135Z 01031G37KT M03/M05 A3021 RMK A01 T10341046  RH  091%=      5-min Rain = 0
KST3 111136Z 00034G42KT M03/M05 A3021 RMK A01 T10331045  RH  091%=      5-min Rain = 0
KST3 111137Z 01034G40KT M03/M05 A3021 RMK A01 T10331046  RH  091%=      5-min Rain = 0
KST3 111138Z 01037G44KT M03/M05 A3022 RMK A01 T10331046  RH  091%=      5-min Rain = 0
KST3 111139Z 01041G47KT M03/M05 A3022 RMK A01 T10341046  RH  091%=      5-min Rain = 0
KST3 111140Z 01037G47KT M03/M05 A3022 RMK A01 T10341047  RH  091%=      5-min Rain = 0
KST3 111141Z 01035G43KT M03/M05 A3022 RMK A01 T10341047  RH  091%=      5-min Rain = 0
KST3 111142Z 01040G47KT M04/M05 A3022 RMK A01 T10351048  RH  090%=      5-min Rain = 0
KST3 111143Z 01041G49KT M04/M05 A3022 RMK A01 T10361051  RH  089%=      5-min Rain = 0
KST3 111144Z 01037G43KT M04/M05 A3022 RMK A01 T10361052  RH  089%=      5-min Rain = 0
KST3 111145Z 00038G46KT M04/M05 A3022 RMK A01 T10361052  RH  089%=      5-min Rain = 0
KST3 111146Z 00043KT M04/M05 A3022 RMK A01 T10361052  RH  089%=      5-min Rain = 0
KST3 111147Z 01040KT M04/M05 A3023 RMK A01 T10371052  RH  090%=      5-min Rain = 0
KST3 111148Z 01041KT M04/M05 A3023 RMK A01 T10371051  RH  090%=      5-min Rain = 0
KST3 111149Z 00041KT M04/M05 A3023 RMK A01 T10381050  RH  091%=      5-min Rain = 0
KST3 111150Z 00038G43KT M04/M05 A3023 RMK A01 T10381050  RH  091%=      5-min Rain = 0
KST3 111151Z 00041G48KT M04/M05 A3023 RMK A01 T10381050  RH  091%=      5-min Rain = 0
KST3 111152Z 00039G45KT M04/M05 A3023 RMK A01 T10381051  RH  091%=      5-min Rain = 0
KST3 111153Z 01034G41KT M04/M05 A3023 RMK A01 T10381051  RH  091%=      5-min Rain = 0
KST3 111154Z 01036G42KT M04/M05 A3023 RMK A01 T10381050  RH  091%=      5-min Rain = 0
KST3 111155Z 00040G46KT M04/M05 A3023 RMK A01 T10371050  RH  091%=      5-min Rain = 0
KST3 111156Z 01035G41KT M04/M05 A3024 RMK A01 T10381050  RH  091%=      5-min Rain = 0
KST3 111157Z 01038G46KT M04/M05 A3024 RMK A01 T10381049  RH  092%=      5-min Rain = 0
KST3 111158Z 01036G42KT M04/M05 A3024 RMK A01 T10381051  RH  091%=      5-min Rain = 0
KST3 111159Z 01034G39KT M04/M05 A3024 RMK A01 T10381051  RH  091%=      5-min Rain = 0
KST3 111200Z 01034G41KT M04/M05 A3025 RMK A01 T10381051  RH  091%=      5-min Rain = 0
KST3 111201Z 01032G37KT M04/M05 A3025 RMK A01 T10381050  RH  092%=      5-min Rain = 0
KST3 111202Z 01035G40KT M04/M05 A3025 RMK A01 T10391049  RH  092%=      5-min Rain = 0
KST3 111203Z 01031G36KT M04/M05 A3025 RMK A01 T10391049  RH  093%=      5-min Rain = 0
KST3 111204Z 01030KT M04/M05 A3025 RMK A01 T10391048  RH  094%=      5-min Rain = 0
KST3 111205Z 00027G32KT M04/M05 A3025 RMK A01 T10391047  RH  094%=      5-min Rain = 0
KST3 111206Z 01025G33KT M04/M05 A3025 RMK A01 T10391047  RH  095%=      5-min Rain = 0
KST3 111207Z 01026G33KT M04/M05 A3025 RMK A01 T10391046  RH  095%=      5-min Rain = 0
KST3 111208Z 01028KT M04/M05 A3025 RMK A01 T10391045  RH  096%=      5-min Rain = 0
KST3 111209Z 01027G34KT M04/M05 A3026 RMK A01 T10401046  RH  096%=      5-min Rain = 0
KST3 111210Z 01033G38KT M04/M05 A3026 RMK A01 T10401046  RH  096%=      5-min Rain = 0
KST3 111211Z 01032G39KT M04/M05 A3026 RMK A01 T10411047  RH  096%=      5-min Rain = 0
KST3 111212Z 01033G41KT M04/M05 A3026 RMK A01 T10411047  RH  095%=      5-min Rain = 0
KST3 111213Z 01033G38KT M04/M05 A3026 RMK A01 T10411048  RH  095%=      5-min Rain = 0
KST3 111214Z 01034G43KT M04/M05 A3026 RMK A01 T10411049  RH  094%=      5-min Rain = 0
KST3 111215Z 01034G40KT M04/M05 A3027 RMK A01 T10421050  RH  094%=      5-min Rain = 0
KST3 111216Z 01030G38KT M04/M05 A3027 RMK A01 T10421050  RH  094%=      5-min Rain = 0
KST3 111217Z 01035G42KT M04/M05 A3027 RMK A01 T10421050  RH  095%=      5-min Rain = 0
KST3 111218Z 01029KT M04/M05 A3027 RMK A01 T10421050  RH  095%=      5-min Rain = 0
KST3 111219Z 01031G38KT M04/M05 A3027 RMK A01 T10421050  RH  095%=      5-min Rain = 0
KST3 111220Z 01034G39KT M04/M05 A3027 RMK A01 T10421049  RH  095%=      5-min Rain = 0
KST3 111221Z 01032G37KT M04/M05 A3027 RMK A01 T10431050  RH  095%=      5-min Rain = 0
KST3 111222Z 01030G39KT M04/M05 A3028 RMK A01 T10421050  RH  095%=      5-min Rain = 0
KST3 111223Z 01032G40KT M04/M05 A3028 RMK A01 T10431050  RH  095%=      5-min Rain = 0
KST3 111224Z 01029G37KT M04/M05 A3028 RMK A01 T10431052  RH  094%=      5-min Rain = 0
KST3 111225Z 01030G35KT M04/M05 A3028 RMK A01 T10441053  RH  094%=      5-min Rain = 0
KST3 111226Z 01028G34KT M05/M05 A3029 RMK A01 T10451054  RH  094%=      5-min Rain = 0
KST3 111227Z 01030G36KT M05/M05 A3029 RMK A01 T10451054  RH  094%=      5-min Rain = 0
KST3 111228Z 01026G31KT M05/M05 A3029 RMK A01 T10461054  RH  094%=      5-min Rain = 0
KST3 111229Z 01027G34KT M05/M05 A3029 RMK A01 T10461053  RH  094%=      5-min Rain = 0
KST3 111230Z 01025KT M05/M05 A3029 RMK A01 T10461053  RH  095%=      5-min Rain = 0
KST3 111231Z 01026G32KT M05/M05 A3029 RMK A01 T10471054  RH  095%=      5-min Rain = 0
KST3 111232Z 01026G31KT M05/M05 A3029 RMK A01 T10471054  RH  095%=      5-min Rain = 0
KST3 111233Z 01024G30KT M05/M05 A3029 RMK A01 T10481054  RH  095%=      5-min Rain = 0
KST3 111234Z 01025G32KT M05/M05 A3029 RMK A01 T10481054  RH  095%=      5-min Rain = 0
KST3 111235Z 01022G28KT M05/M05 A3029 RMK A01 T10481054  RH  096%=      5-min Rain = 0
KST3 111236Z 01029G37KT M05/M05 A303 RMK A01 T10481054  RH  096%=      5-min Rain = 0
KST3 111237Z 01024G30KT M05/M05 A303 RMK A01 T10481054  RH  096%=      5-min Rain = 0
KST3 111238Z 01029KT M05/M05 A303 RMK A01 T10481053  RH  096%=      5-min Rain = 0
KST3 111239Z 01029G35KT M05/M05 A3031 RMK A01 T10481054  RH  096%=      5-min Rain = 0
KST3 111240Z 02027G32KT M05/M06 A3031 RMK A01 T10491055  RH  096%=      5-min Rain = 0
KST3 111241Z 01027KT M05/M06 A3031 RMK A01 T10491056  RH  095%=      5-min Rain = 0
KST3 111242Z 02028G35KT M05/M06 A3031 RMK A01 T10501058  RH  094%=      5-min Rain = 0
KST3 111243Z 01024G30KT M05/M06 A3031 RMK A01 T10511059  RH  094%=      5-min Rain = 0
KST3 111244Z 01027G34KT M05/M06 A3032 RMK A01 T10511059  RH  094%=      5-min Rain = 0
KST3 111245Z 02026G31KT M05/M06 A3032 RMK A01 T10511059  RH  094%=      5-min Rain = 0
KST3 111246Z 01025G33KT M05/M06 A3032 RMK A01 T10511059  RH  094%=      5-min Rain = 0
KST3 111247Z 02027KT M05/M06 A3032 RMK A01 T10511059  RH  094%=      5-min Rain = 0
KST3 111248Z 02028KT M05/M06 A3032 RMK A01 T10511060  RH  094%=      5-min Rain = 0
KST3 111249Z 02030KT M05/M06 A3032 RMK A01 T10511060  RH  093%=      5-min Rain = 0
KST3 111250Z 02026G31KT M05/M06 A3032 RMK A01 T10511060  RH  093%=      5-min Rain = 0
KST3 111251Z 02026KT M05/M06 A3032 RMK A01 T10511061  RH  093%=      5-min Rain = 0
KST3 111252Z 02027G33KT M05/M06 A3033 RMK A01 T10511061  RH  093%=      5-min Rain = 0
KST3 111253Z 02026G34KT M05/M06 A3032 RMK A01 T10511061  RH  093%=      5-min Rain = 0
KST3 111254Z 02026KT M05/M06 A3033 RMK A01 T10511062  RH  093%=      5-min Rain = 0
KST3 111255Z 02024G29KT M05/M06 A3033 RMK A01 T10521062  RH  093%=      5-min Rain = 0
KST3 111256Z 02026G31KT M05/M06 A3033 RMK A01 T10511061  RH  093%=      5-min Rain = 0
KST3 111257Z 02028KT M05/M06 A3033 RMK A01 T10521061  RH  093%=      5-min Rain = 0
KST3 111258Z 02026KT M05/M06 A3033 RMK A01 T10521062  RH  093%=      5-min Rain = 0
KST3 111259Z 02028KT M05/M06 A3033 RMK A01 T10521061  RH  093%=      5-min Rain = 0
KST3 111300Z 02023G28KT M05/M06 A3033 RMK A01 T10521061  RH  093%=      5-min Rain = 0
KST3 111301Z 02027KT M05/M06 A3033 RMK A01 T10521061  RH  094%=      5-min Rain = 0
KST3 111302Z 02025G31KT M05/M06 A3033 RMK A01 T10521061  RH  094%=      5-min Rain = 0
KST3 111303Z 01024G29KT M05/M06 A3033 RMK A01 T10521061  RH  094%=      5-min Rain = 0
KST3 111304Z 02027G32KT M05/M06 A3033 RMK A01 T10521060  RH  094%=      5-min Rain = 0
KST3 111305Z 01029KT M05/M06 A3033 RMK A01 T10521060  RH  094%=      5-min Rain = 0
KST3 111306Z 01028KT M05/M06 A3033 RMK A01 T10521060  RH  094%=      5-min Rain = 0
KST3 111307Z 00027KT M05/M06 A3033 RMK A01 T10521060  RH  095%=      5-min Rain = 0
KST3 111308Z 01028G39KT M05/M06 A3033 RMK A01 T10531061  RH  094%=      5-min Rain = 0
KST3 111309Z 01035KT M05/M06 A3034 RMK A01 T10541063  RH  094%=      5-min Rain = 0
KST3 111310Z 01031G36KT M06/M06 A3034 RMK A01 T10551064  RH  093%=      5-min Rain = 0
KST3 111311Z 01030G38KT M06/M07 A3034 RMK A01 T10561065  RH  093%=      5-min Rain = 0
KST3 111312Z 01031G36KT M06/M07 A3034 RMK A01 T10561067  RH  093%=      5-min Rain = 0
KST3 111313Z 01030KT M06/M07 A3034 RMK A01 T10571068  RH  092%=      5-min Rain = 0
KST3 111314Z 01027G33KT M06/M07 A3034 RMK A01 T10581069  RH  092%=      5-min Rain = 0
KST3 111315Z 01027KT M06/M07 A3034 RMK A01 T10581068  RH  092%=      5-min Rain = 0
KST3 111316Z 01030G36KT M06/M07 A3035 RMK A01 T10581068  RH  093%=      5-min Rain = 0
KST3 111317Z 02029G34KT M06/M07 A3035 RMK A01 T10591069  RH  093%=      5-min Rain = 0
KST3 111318Z 02029KT M06/M07 A3035 RMK A01 T10591069  RH  093%=      5-min Rain = 0
KST3 111319Z 01033KT M06/M07 A3035 RMK A01 T10591069  RH  093%=      5-min Rain = 0
KST3 111320Z 01029KT M06/M07 A3035 RMK A01 T10591070  RH  092%=      5-min Rain = 0
KST3 111321Z 01029KT M06/M07 A3035 RMK A01 T10591070  RH  092%=      5-min Rain = 0
KST3 111322Z 01026G32KT M06/M07 A3035 RMK A01 T10591069  RH  092%=      5-min Rain = 0
KST3 111323Z 02027KT M06/M07 A3035 RMK A01 T10591069  RH  093%=      5-min Rain = 0
KST3 111324Z 02026KT M06/M07 A3035 RMK A01 T10591069  RH  093%=      5-min Rain = 0
KST3 111325Z 01032KT M06/M07 A3035 RMK A01 T10601069  RH  093%=      5-min Rain = 0
KST3 111326Z 01030KT M06/M07 A3035 RMK A01 T10601070  RH  093%=      5-min Rain = 0
KST3 111327Z 01027G33KT M06/M07 A3035 RMK A01 T10601069  RH  093%=      5-min Rain = 0
KST3 111328Z 01030G35KT M06/M07 A3035 RMK A01 T10601069  RH  093%=      5-min Rain = 0
KST3 111329Z 01028G34KT M06/M07 A3035 RMK A01 T10601069  RH  093%=      5-min Rain = 0
KST3 111330Z 01028G33KT M06/M07 A3035 RMK A01 T10601069  RH  094%=      5-min Rain = 0
KST3 111331Z 01030G35KT M06/M07 A3035 RMK A01 T10601069  RH  094%=      5-min Rain = 0
KST3 111332Z 00027G33KT M06/M07 A3035 RMK A01 T10601069  RH  093%=      5-min Rain = 0
KST3 111333Z 01026KT M06/M07 A3035 RMK A01 T10601070  RH  093%=      5-min Rain = 0
KST3 111334Z 01027G33KT M06/M07 A3035 RMK A01 T10601070  RH  093%=      5-min Rain = 0
KST3 111335Z 00028G33KT M06/M07 A3035 RMK A01 T10601070  RH  093%=      5-min Rain = 0
KST3 111336Z 01027G33KT M06/M07 A3035 RMK A01 T10601070  RH  093%=      5-min Rain = 0
KST3 111337Z 00030KT M06/M07 A3035 RMK A01 T10601070  RH  093%=      5-min Rain = 0
KST3 111338Z 00030KT M06/M07 A3035 RMK A01 T10601070  RH  093%=      5-min Rain = 0
KST3 111339Z 01027G32KT M06/M07 A3035 RMK A01 T10601069  RH  093%=      5-min Rain = 0
KST3 111340Z 01024G30KT M06/M07 A3036 RMK A01 T10611069  RH  094%=      5-min Rain = 0
KST3 111341Z 01027G33KT M06/M07 A3036 RMK A01 T10601068  RH  094%=      5-min Rain = 0
KST3 111342Z 01027G33KT M06/M07 A3036 RMK A01 T10601069  RH  094%=      5-min Rain = 0
KST3 111343Z 01028KT M06/M07 A3036 RMK A01 T10611069  RH  094%=      5-min Rain = 0
KST3 111344Z 01029G35KT M06/M07 A3036 RMK A01 T10601069  RH  094%=      5-min Rain = 0
KST3 111345Z 01031KT M06/M07 A3036 RMK A01 T10601069  RH  094%=      5-min Rain = 0
KST3 111346Z 01030KT M06/M07 A3037 RMK A01 T10601069  RH  094%=      5-min Rain = 0
KST3 111347Z 01029G34KT M06/M07 A3036 RMK A01 T10601069  RH  094%=      5-min Rain = 0
KST3 111348Z 01025KT M06/M07 A3037 RMK A01 T10601068  RH  094%=      5-min Rain = 0
KST3 111349Z 01029KT M06/M07 A3037 RMK A01 T10601068  RH  095%=      5-min Rain = 0
KST3 111350Z 01030G36KT M06/M07 A3037 RMK A01 T10601068  RH  094%=      5-min Rain = 0
KST3 111351Z 01027KT M06/M07 A3037 RMK A01 T10611069  RH  094%=      5-min Rain = 0
KST3 111352Z 01030G35KT M06/M07 A3037 RMK A01 T10621071  RH  093%=      5-min Rain = 0
KST3 111353Z 01025KT M06/M07 A3037 RMK A01 T10631072  RH  093%=      5-min Rain = 0
KST3 111354Z 01028G33KT M06/M07 A3037 RMK A01 T10631074  RH  093%=      5-min Rain = 0
KST3 111355Z 01029G37KT M06/M07 A3037 RMK A01 T10641074  RH  092%=      5-min Rain = 0
KST3 111356Z 01028KT M06/M08 A3037 RMK A01 T10641075  RH  092%=      5-min Rain = 0
KST3 111357Z 01030KT M07/M08 A3037 RMK A01 T10651076  RH  092%=      5-min Rain = 0
KST3 111358Z 01029KT M07/M08 A3038 RMK A01 T10651077  RH  092%=      5-min Rain = 0
KST3 111359Z 01027G33KT M07/M08 A3038 RMK A01 T10661077  RH  092%=      5-min Rain = 0
KST3 111400Z 01025G31KT M07/M08 A3038 RMK A01 T10671078  RH  092%=      5-min Rain = 0
KST3 111401Z 01029KT M07/M08 A3038 RMK A01 T10671078  RH  092%=      5-min Rain = 0
KST3 111402Z 01026G31KT M07/M08 A3038 RMK A01 T10671078  RH  092%=      5-min Rain = 0
KST3 111403Z 01028G33KT M07/M08 A3039 RMK A01 T10671078  RH  092%=      5-min Rain = 0
KST3 111404Z 01026KT M07/M08 A3039 RMK A01 T10681078  RH  092%=      5-min Rain = 0
KST3 111405Z 01027G32KT M07/M08 A3039 RMK A01 T10681078  RH  092%=      5-min Rain = 0
KST3 111406Z 01025G32KT M07/M08 A3039 RMK A01 T10681078  RH  092%=      5-min Rain = 0
KST3 111407Z 01029G35KT M07/M08 A3039 RMK A01 T10681078  RH  092%=      5-min Rain = 0
KST3 111408Z 01028G35KT M07/M08 A3039 RMK A01 T10681078  RH  092%=      5-min Rain = 0
KST3 111409Z 02024G33KT M07/M08 A304 RMK A01 T10681079  RH  092%=      5-min Rain = 0
KST3 111410Z 01025KT M07/M08 A304 RMK A01 T10681078  RH  092%=      5-min Rain = 0
KST3 111411Z 02023G28KT M07/M08 A304 RMK A01 T10681078  RH  092%=      5-min Rain = 0
KST3 111412Z 02024KT M07/M08 A304 RMK A01 T10681079  RH  092%=      5-min Rain = 0
KST3 111413Z 02023KT M07/M08 A3041 RMK A01 T10681079  RH  092%=      5-min Rain = 0
KST3 111414Z 02021KT M07/M08 A3041 RMK A01 T10671078  RH  092%=      5-min Rain = 0
KST3 111415Z 02020KT M07/M08 A3041 RMK A01 T10671078  RH  092%=      5-min Rain = 0
KST3 111416Z 02023G29KT M07/M08 A3041 RMK A01 T10671078  RH  093%=      5-min Rain = 0
KST3 111417Z 02022G28KT M07/M08 A3041 RMK A01 T10671077  RH  093%=      5-min Rain = 0
KST3 111418Z 02021KT M07/M08 A3041 RMK A01 T10671077  RH  093%=      5-min Rain = 0
KST3 111419Z 02020KT M07/M08 A3041 RMK A01 T10671076  RH  093%=      5-min Rain = 0
KST3 111420Z 02025KT M07/M08 A3042 RMK A01 T10671075  RH  094%=      5-min Rain = 0
KST3 111421Z 02027KT M07/M08 A3042 RMK A01 T10671076  RH  094%=      5-min Rain = 0
KST3 111422Z 02026KT M07/M08 A3042 RMK A01 T10671076  RH  094%=      5-min Rain = 0
KST3 111423Z 02023KT M07/M08 A3042 RMK A01 T10661075  RH  094%=      5-min Rain = 0
KST3 111424Z 02024KT M07/M07 A3042 RMK A01 T10661074  RH  094%=      5-min Rain = 0
KST3 111425Z 02023KT M07/M07 A3042 RMK A01 T10661074  RH  094%=      5-min Rain = 0
KST3 111426Z 01023G28KT M07/M07 A3042 RMK A01 T10661073  RH  095%=      5-min Rain = 0
KST3 111427Z 01020G25KT M07/M07 A3042 RMK A01 T10661073  RH  095%=      5-min Rain = 0
KST3 111428Z 01024KT M07/M07 A3042 RMK A01 T10651072  RH  095%=      5-min Rain = 0
KST3 111429Z 01023KT M07/M07 A3042 RMK A01 T10651072  RH  095%=      5-min Rain = 0
KST3 111430Z 01022KT M07/M07 A3043 RMK A01 T10651072  RH  095%=      5-min Rain = 0
KST3 111431Z 01022KT M07/M07 A3042 RMK A01 T10651072  RH  095%=      5-min Rain = 0
KST3 111432Z 01024KT M07/M07 A3043 RMK A01 T10661073  RH  094%=      5-min Rain = 0
KST3 111433Z 01024G29KT M07/M08 A3043 RMK A01 T10671075  RH  094%=      5-min Rain = 0
KST3 111434Z 01026KT M07/M08 A3043 RMK A01 T10691078  RH  093%=      5-min Rain = 0
KST3 111435Z 01021G26KT M07/M08 A3043 RMK A01 T10701080  RH  093%=      5-min Rain = 0
KST3 111436Z 01023KT M07/M08 A3043 RMK A01 T10701080  RH  093%=      5-min Rain = 0
KST3 111437Z 01024G30KT M07/M08 A3043 RMK A01 T10701080  RH  093%=      5-min Rain = 0
KST3 111438Z 01029KT M07/M08 A3044 RMK A01 T10711082  RH  092%=      5-min Rain = 0
KST3 111439Z 01028G35KT M07/M08 A3044 RMK A01 T10711084  RH  091%=      5-min Rain = 0
KST3 111440Z 02025G30KT M07/M09 A3044 RMK A01 T10721085  RH  090%=      5-min Rain = 0
KST3 111441Z 01027G32KT M07/M09 A3044 RMK A01 T10721086  RH  090%=      5-min Rain = 0
KST3 111442Z 02025G30KT M07/M09 A3044 RMK A01 T10721086  RH  089%=      5-min Rain = 0
KST3 111443Z 01025G30KT M07/M09 A3044 RMK A01 T10721087  RH  089%=      5-min Rain = 0
KST3 111444Z 02024KT M07/M09 A3045 RMK A01 T10721087  RH  089%=      5-min Rain = 0
KST3 111445Z 02025KT M07/M09 A3045 RMK A01 T10721088  RH  089%=      5-min Rain = 0
KST3 111446Z 02022KT M07/M09 A3045 RMK A01 T10721088  RH  089%=      5-min Rain = 0
KST3 111447Z 01022KT M07/M09 A3045 RMK A01 T10721088  RH  089%=      5-min Rain = 0
KST3 111448Z 01023KT M07/M09 A3045 RMK A01 T10721087  RH  089%=      5-min Rain = 0
KST3 111449Z 01025G31KT M07/M09 A3045 RMK A01 T10721088  RH  089%=      5-min Rain = 0
KST3 111450Z 02024G30KT M07/M09 A3045 RMK A01 T10721089  RH  088%=      5-min Rain = 0
KST3 111451Z 02027KT M07/M09 A3046 RMK A01 T10721089  RH  088%=      5-min Rain = 0
KST3 111452Z 02023KT M07/M09 A3046 RMK A01 T10721090  RH  087%=      5-min Rain = 0
KST3 111453Z 02020KT M07/M09 A3046 RMK A01 T10721089  RH  088%=      5-min Rain = 0
KST3 111454Z 02020KT M07/M09 A3046 RMK A01 T10721087  RH  089%=      5-min Rain = 0
KST3 111455Z 01019G24KT M07/M09 A3046 RMK A01 T10721087  RH  089%=      5-min Rain = 0
KST3 111456Z 02019KT M07/M09 A3046 RMK A01 T10721087  RH  089%=      5-min Rain = 0
KST3 111457Z 01019KT M07/M09 A3046 RMK A01 T10711086  RH  089%=      5-min Rain = 0
KST3 111458Z 01020KT M07/M09 A3046 RMK A01 T10711086  RH  089%=      5-min Rain = 0
KST3 111459Z 01020KT M07/M09 A3046 RMK A01 T10711086  RH  090%=      5-min Rain = 0
KST3 111500Z 01021KT M07/M09 A3046 RMK A01 T10711085  RH  090%=      5-min Rain = 0
KST3 111501Z 00022KT M07/M09 A3046 RMK A01 T10711085  RH  090%=      5-min Rain = 0
KST3 111502Z 01024KT M07/M09 A3046 RMK A01 T10721087  RH  089%=      5-min Rain = 0
KST3 111503Z 01027KT M07/M09 A3046 RMK A01 T10721088  RH  088%=      5-min Rain = 0
KST3 111504Z 02025G31KT M07/M09 A3047 RMK A01 T10731090  RH  087%=      5-min Rain = 0
KST3 111505Z 01022G28KT M07/M09 A3046 RMK A01 T10731091  RH  087%=      5-min Rain = 0
KST3 111506Z 01023G29KT M07/M09 A3046 RMK A01 T10731091  RH  087%=      5-min Rain = 0
KST3 111507Z 01025G30KT M07/M09 A3047 RMK A01 T10731091  RH  087%=      5-min Rain = 0
KST3 111508Z 01022KT M07/M09 A3047 RMK A01 T10731091  RH  086%=      5-min Rain = 0
KST3 111509Z 02022KT M07/M09 A3047 RMK A01 T10721091  RH  086%=      5-min Rain = 0
KST3 111510Z 02020G26KT M07/M09 A3047 RMK A01 T10721092  RH  086%=      5-min Rain = 0
KST3 111511Z 01022KT M07/M09 A3047 RMK A01 T10721091  RH  086%=      5-min Rain = 0
KST3 111512Z 01021G26KT M07/M09 A3047 RMK A01 T10721091  RH  086%=      5-min Rain = 0
KST3 111513Z 01020KT M07/M09 A3047 RMK A01 T10721091  RH  086%=      5-min Rain = 0
KST3 111514Z 01018KT M07/M09 A3047 RMK A01 T10721091  RH  086%=      5-min Rain = 0
KST3 111515Z 01019G25KT M07/M09 A3047 RMK A01 T10711089  RH  087%=      5-min Rain = 0
KST3 111516Z 01024KT M07/M09 A3047 RMK A01 T10711089  RH  087%=      5-min Rain = 0
KST3 111517Z 01024KT M07/M09 A3047 RMK A01 T10721091  RH  086%=      5-min Rain = 0
KST3 111518Z 01023KT M07/M09 A3047 RMK A01 T10721092  RH  086%=      5-min Rain = 0
KST3 111519Z 01022KT M07/M09 A3047 RMK A01 T10721092  RH  086%=      5-min Rain = 0
KST3 111520Z 01023KT M07/M09 A3047 RMK A01 T10721093  RH  086%=      5-min Rain = 0
KST3 111521Z 01026G31KT M07/M09 A3047 RMK A01 T10721093  RH  085%=      5-min Rain = 0
KST3 111522Z 01027KT M07/M09 A3047 RMK A01 T10721094  RH  085%=      5-min Rain = 0
KST3 111523Z 01024G29KT M07/M09 A3047 RMK A01 T10731094  RH  085%=      5-min Rain = 0
KST3 111524Z 02024KT M07/M10 A3047 RMK A01 T10731095  RH  084%=      5-min Rain = 0
KST3 111525Z 01019G24KT M07/M10 A3047 RMK A01 T10731095  RH  084%=      5-min Rain = 0
KST3 111526Z 01022KT M07/M09 A3047 RMK A01 T10731094  RH  085%=      5-min Rain = 0
KST3 111527Z 01021G26KT M07/M09 A3047 RMK A01 T10721093  RH  085%=      5-min Rain = 0
KST3 111528Z 01021G27KT M07/M09 A3047 RMK A01 T10721093  RH  085%=      5-min Rain = 0
KST3 111529Z 01023G28KT M07/M09 A3048 RMK A01 T10721093  RH  085%=      5-min Rain = 0
KST3 111530Z 01026G31KT M07/M09 A3048 RMK A01 T10721094  RH  085%=      5-min Rain = 0
KST3 111531Z 01022G27KT M07/M09 A3048 RMK A01 T10721094  RH  084%=      5-min Rain = 0
KST3 111532Z 01023KT M07/M10 A3048 RMK A01 T10731095  RH  085%=      5-min Rain = 0
KST3 111533Z 01024KT M07/M09 A3048 RMK A01 T10731094  RH  085%=      5-min Rain = 0
KST3 111534Z 01024KT M07/M10 A3048 RMK A01 T10731095  RH  084%=      5-min Rain = 0
KST3 111535Z 01024KT M07/M09 A3048 RMK A01 T10721094  RH  084%=      5-min Rain = 0
KST3 111536Z 01023G28KT M07/M10 A3048 RMK A01 T10731095  RH  084%=      5-min Rain = 0
KST3 111537Z 01025KT M07/M10 A3048 RMK A01 T10731095  RH  084%=      5-min Rain = 0
KST3 111538Z 01026KT M07/M10 A3048 RMK A01 T10731095  RH  084%=      5-min Rain = 0
KST3 111539Z 01024KT M07/M10 A3048 RMK A01 T10731095  RH  084%=      5-min Rain = 0
KST3 111540Z 02024KT M07/M10 A3048 RMK A01 T10731096  RH  084%=      5-min Rain = 0
KST3 111541Z 01021G26KT M07/M10 A3048 RMK A01 T10721096  RH  084%=      5-min Rain = 0
KST3 111542Z 01025G30KT M07/M10 A3048 RMK A01 T10721095  RH  084%=      5-min Rain = 0
KST3 111543Z 01029KT M07/M10 A3048 RMK A01 T10721097  RH  083%=      5-min Rain = 0
KST3 111544Z 01029KT M07/M10 A3048 RMK A01 T10721098  RH  082%=      5-min Rain = 0
KST3 111545Z 01026G31KT M07/M10 A3048 RMK A01 T10731100  RH  081%=      5-min Rain = 0
KST3 111546Z 01024G29KT M07/M10 A3049 RMK A01 T10721100  RH  081%=      5-min Rain = 0
KST3 111547Z 01024KT M07/M10 A3049 RMK A01 T10721100  RH  081%=      5-min Rain = 0
KST3 111548Z 01024G30KT M07/M10 A3049 RMK A01 T10721100  RH  080%=      5-min Rain = 0
KST3 111549Z 01026KT M07/M10 A3048 RMK A01 T10711100  RH  080%=      5-min Rain = 0
KST3 111550Z 01028G33KT M07/M10 A3049 RMK A01 T10711100  RH  080%=      5-min Rain = 0
KST3 111551Z 01029KT M07/M10 A3049 RMK A01 T10711101  RH  079%=      5-min Rain = 0
KST3 111552Z 02028G33KT M07/M10 A3049 RMK A01 T10711102  RH  079%=      5-min Rain = 0
KST3 111553Z 01024KT M07/M10 A3049 RMK A01 T10721103  RH  079%=      5-min Rain = 0
KST3 111554Z 01025G34KT M07/M10 A3049 RMK A01 T10721102  RH  079%=      5-min Rain = 0
KST3 111555Z 01025KT M07/M10 A3049 RMK A01 T10711101  RH  079%=      5-min Rain = 0
KST3 111556Z 01028KT M07/M10 A3049 RMK A01 T10711102  RH  079%=      5-min Rain = 0
KST3 111557Z 01028G33KT M07/M10 A3049 RMK A01 T10711102  RH  079%=      5-min Rain = 0
KST3 111558Z 01027G32KT M07/M10 A305 RMK A01 T10711103  RH  078%=      5-min Rain = 0
KST3 111559Z 01025G30KT M07/M10 A3049 RMK A01 T10711103  RH  078%=      5-min Rain = 0
KST3 111600Z 01028KT M07/M10 A305 RMK A01 T10711102  RH  078%=      5-min Rain = 0
KST3 111601Z 01027KT M07/M10 A305 RMK A01 T10711103  RH  078%=      5-min Rain = 0
KST3 111602Z 01025KT M07/M10 A3049 RMK A01 T10711102  RH  078%=      5-min Rain = 0
KST3 111603Z 01027KT M07/M10 A3049 RMK A01 T10711102  RH  079%=      5-min Rain = 0
KST3 111604Z 01028G33KT M07/M10 A3049 RMK A01 T10711102  RH  078%=      5-min Rain = 0
KST3 111605Z 01024KT M07/M10 A3049 RMK A01 T10701102  RH  078%=      5-min Rain = 0
KST3 111606Z 01023KT M07/M10 A3049 RMK A01 T10701101  RH  079%=      5-min Rain = 0
KST3 111607Z 01025KT M07/M10 A3049 RMK A01 T10701100  RH  079%=      5-min Rain = 0
KST3 111608Z 01022KT M07/M10 A3049 RMK A01 T10691100  RH  079%=      5-min Rain = 0
KST3 111609Z 01021G26KT M07/M10 A3049 RMK A01 T10691099  RH  079%=      5-min Rain = 0
KST3 111610Z 01026KT M07/M10 A305 RMK A01 T10681099  RH  079%=      5-min Rain = 0
KST3 111611Z 01023G28KT M07/M10 A305 RMK A01 T10681100  RH  078%=      5-min Rain = 0
KST3 111612Z 01024G29KT M07/M10 A3049 RMK A01 T10691101  RH  078%=      5-min Rain = 0
KST3 111613Z 01025G30KT M07/M10 A305 RMK A01 T10691101  RH  078%=      5-min Rain = 0
KST3 111614Z 01024KT M07/M10 A305 RMK A01 T10691101  RH  078%=      5-min Rain = 0
KST3 111615Z 01023G28KT M07/M10 A305 RMK A01 T10681100  RH  078%=      5-min Rain = 0
KST3 111616Z 01024KT M07/M10 A3049 RMK A01 T10681100  RH  078%=      5-min Rain = 0
KST3 111617Z 01021KT M07/M10 A3049 RMK A01 T10671099  RH  078%=      5-min Rain = 0
KST3 111618Z 01020G25KT M07/M10 A305 RMK A01 T10671098  RH  078%=      5-min Rain = 0
KST3 111619Z 01024G29KT M07/M10 A305 RMK A01 T10661097  RH  079%=      5-min Rain = 0
KST3 111620Z 01025KT M07/M10 A305 RMK A01 T10661098  RH  078%=      5-min Rain = 0
KST3 111621Z 01023KT M07/M10 A305 RMK A01 T10661098  RH  078%=      5-min Rain = 0
KST3 111622Z 01022KT M07/M10 A305 RMK A01 T10671097  RH  079%=      5-min Rain = 0
KST3 111623Z 01022KT M07/M10 A305 RMK A01 T10661096  RH  080%=      5-min Rain = 0
KST3 111624Z 01019KT M07/M09 A305 RMK A01 T10661094  RH  080%=      5-min Rain = 0
KST3 111625Z 01021KT M07/M09 A305 RMK A01 T10651092  RH  081%=      5-min Rain = 0
KST3 111626Z 01024KT M07/M09 A305 RMK A01 T10651093  RH  081%=      5-min Rain = 0
KST3 111627Z 01023G28KT M07/M09 A305 RMK A01 T10671093  RH  082%=      5-min Rain = 0
KST3 111628Z 01024KT M07/M09 A305 RMK A01 T10681094  RH  082%=      5-min Rain = 0
KST3 111629Z 01026KT M07/M09 A305 RMK A01 T10681094  RH  082%=      5-min Rain = 0
KST3 111630Z 01023G28KT M07/M10 A305 RMK A01 T10681095  RH  081%=      5-min Rain = 0
KST3 111631Z 01023KT M07/M10 A305 RMK A01 T10691095  RH  081%=      5-min Rain = 0
KST3 111632Z 01021G26KT M07/M10 A305 RMK A01 T10691095  RH  081%=      5-min Rain = 0
KST3 111633Z 01023G30KT M07/M09 A305 RMK A01 T10681094  RH  081%=      5-min Rain = 0
KST3 111634Z 00024G29KT M07/M10 A305 RMK A01 T10681095  RH  081%=      5-min Rain = 0
KST3 111635Z 01023KT M07/M10 A3051 RMK A01 T10671096  RH  080%=      5-min Rain = 0
KST3 111636Z 01023G29KT M07/M10 A3051 RMK A01 T10671097  RH  079%=      5-min Rain = 0
KST3 111637Z 01023G28KT M07/M10 A3051 RMK A01 T10671099  RH  078%=      5-min Rain = 0
KST3 111638Z 01025KT M07/M10 A3051 RMK A01 T10671100  RH  077%=      5-min Rain = 0
KST3 111639Z 01025G31KT M07/M10 A3051 RMK A01 T10671101  RH  077%=      5-min Rain = 0
KST3 111640Z 01026KT M07/M10 A3051 RMK A01 T10681102  RH  076%=      5-min Rain = 0
KST3 111641Z 01025KT M07/M10 A3051 RMK A01 T10681102  RH  077%=      5-min Rain = 0
KST3 111642Z 01024G29KT M07/M10 A3051 RMK A01 T10681102  RH  077%=      5-min Rain = 0
KST3 111643Z 00024G29KT M07/M10 A3051 RMK A01 T10681103  RH  077%=      5-min Rain = 0
KST3 111644Z 01025G30KT M07/M10 A3051 RMK A01 T10681103  RH  076%=      5-min Rain = 0
KST3 111645Z 01022G28KT M07/M11 A3051 RMK A01 T10681105  RH  075%=      5-min Rain = 0
KST3 111646Z 02022G28KT M07/M10 A3051 RMK A01 T10681104  RH  075%=      5-min Rain = 0
KST3 111647Z 01027KT M07/M10 A3051 RMK A01 T10661104  RH  075%=      5-min Rain = 0
KST3 111648Z 01024KT M07/M11 A3051 RMK A01 T10661106  RH  073%=      5-min Rain = 0
KST3 111649Z 02027G33KT M07/M11 A3051 RMK A01 T10661106  RH  073%=      5-min Rain = 0
KST3 111650Z 01025KT M07/M11 A3051 RMK A01 T10661108  RH  072%=      5-min Rain = 0
KST3 111651Z 01027KT M07/M11 A3051 RMK A01 T10661109  RH  072%=      5-min Rain = 0
KST3 111652Z 01027KT M07/M11 A3051 RMK A01 T10661109  RH  071%=      5-min Rain = 0
KST3 111653Z 01023G29KT M07/M11 A3051 RMK A01 T10661109  RH  071%=      5-min Rain = 0
KST3 111654Z 01026G32KT M06/M11 A3051 RMK A01 T10641107  RH  072%=      5-min Rain = 0
KST3 111655Z 01025KT M06/M11 A3051 RMK A01 T10631107  RH  071%=      5-min Rain = 0
KST3 111656Z 02027KT M06/M11 A3051 RMK A01 T10631109  RH  070%=      5-min Rain = 0
KST3 111657Z 01023KT M06/M11 A3051 RMK A01 T10631110  RH  069%=      5-min Rain = 0
KST3 111658Z 01027KT M06/M11 A3051 RMK A01 T10631109  RH  069%=      5-min Rain = 0
KST3 111659Z 01027G32KT M06/M11 A3051 RMK A01 T10621109  RH  070%=      5-min Rain = 0
KST3 111700Z 01026KT M06/M11 A3051 RMK A01 T10631109  RH  070%=      5-min Rain = 0
KST3 111701Z 01028KT M06/M11 A3051 RMK A01 T10631108  RH  070%=      5-min Rain = 0
KST3 111702Z 01027G32KT M06/M11 A3051 RMK A01 T10621108  RH  070%=      5-min Rain = 0
KST3 111703Z 01026G31KT M06/M11 A3051 RMK A01 T10621108  RH  070%=      5-min Rain = 0
KST3 111704Z 01026G32KT M06/M11 A3051 RMK A01 T10611107  RH  070%=      5-min Rain = 0
KST3 111705Z 01025G30KT M06/M11 A3051 RMK A01 T10611108  RH  070%=      5-min Rain = 0
KST3 111706Z 01027KT M06/M11 A3051 RMK A01 T10611107  RH  070%=      5-min Rain = 0
KST3 111707Z 01025G30KT M06/M11 A3051 RMK A01 T10611107  RH  070%=      5-min Rain = 0
KST3 111708Z 01026KT M06/M11 A3051 RMK A01 T10611105  RH  071%=      5-min Rain = 0
KST3 111709Z 01023G29KT M06/M11 A3051 RMK A01 T10611105  RH  071%=      5-min Rain = 0
KST3 111710Z 01024KT M06/M10 A3051 RMK A01 T10601104  RH  071%=      5-min Rain = 0
KST3 111711Z 01027G32KT M06/M11 A3051 RMK A01 T10591105  RH  070%=      5-min Rain = 0
KST3 111712Z 01028G33KT M06/M11 A3051 RMK A01 T10601108  RH  069%=      5-min Rain = 0
KST3 111713Z 01027KT M06/M11 A3051 RMK A01 T10601109  RH  068%=      5-min Rain = 0
KST3 111714Z 01030G36KT M06/M11 A3051 RMK A01 T10601109  RH  068%=      5-min Rain = 0
KST3 111715Z 02030G35KT M06/M11 A3051 RMK A01 T10591110  RH  067%=      5-min Rain = 0
KST3 111716Z 02024KT M06/M11 A3051 RMK A01 T10591111  RH  067%=      5-min Rain = 0
KST3 111717Z 01024G30KT M06/M11 A3051 RMK A01 T10591110  RH  067%=      5-min Rain = 0
KST3 111718Z 02026KT M06/M11 A3051 RMK A01 T10581110  RH  067%=      5-min Rain = 0
KST3 111719Z 02026G32KT M06/M11 A3051 RMK A01 T10581111  RH  066%=      5-min Rain = 0
KST3 111720Z 01023KT M06/M11 A3051 RMK A01 T10581111  RH  066%=      5-min Rain = 0
KST3 111721Z 02028G34KT M06/M11 A3051 RMK A01 T10581111  RH  066%=      5-min Rain = 0
KST3 111722Z 01028KT M06/M11 A3051 RMK A01 T10581113  RH  065%=      5-min Rain = 0
KST3 111723Z 01027KT M06/M11 A3051 RMK A01 T10571112  RH  065%=      5-min Rain = 0
KST3 111724Z 02025G31KT M06/M11 A3051 RMK A01 T10561111  RH  065%=      5-min Rain = 0
KST3 111725Z 02024KT M05/M11 A3051 RMK A01 T10541110  RH  065%=      5-min Rain = 0
KST3 111726Z 02025G30KT M05/M11 A3051 RMK A01 T10521107  RH  065%=      5-min Rain = 0
KST3 111727Z 02025G31KT M05/M11 A3051 RMK A01 T10501107  RH  064%=      5-min Rain = 0
KST3 111728Z 02028KT M05/M11 A3051 RMK A01 T10481105  RH  064%=      5-min Rain = 0
KST3 111729Z 02026G31KT M05/M11 A3051 RMK A01 T10471105  RH  064%=      5-min Rain = 0
KST3 111730Z 02028G34KT M05/M11 A3052 RMK A01 T10461106  RH  063%=      5-min Rain = 0
KST3 111731Z 02025G30KT M05/M11 A3051 RMK A01 T10471108  RH  062%=      5-min Rain = 0
KST3 111732Z 02025G30KT M05/M11 A3052 RMK A01 T10471108  RH  062%=      5-min Rain = 0
KST3 111733Z 02026KT M05/M11 A3051 RMK A01 T10471108  RH  062%=      5-min Rain = 0
KST3 111734Z 01025G32KT M05/M11 A3051 RMK A01 T10471107  RH  063%=      5-min Rain = 0
KST3 111735Z 01023G30KT M05/M11 A3051 RMK A01 T10481107  RH  063%=      5-min Rain = 0
KST3 111736Z 01028KT M05/M11 A3051 RMK A01 T10461106  RH  063%=      5-min Rain = 0
KST3 111737Z 01027G32KT M05/M11 A3052 RMK A01 T10481110  RH  062%=      5-min Rain = 0
KST3 111738Z 01027G32KT M05/M11 A3052 RMK A01 T10501111  RH  063%=      5-min Rain = 0
KST3 111739Z 02027G32KT M05/M11 A3052 RMK A01 T10511110  RH  063%=      5-min Rain = 0
KST3 111740Z 02028G33KT M05/M11 A3052 RMK A01 T10481107  RH  064%=      5-min Rain = 0
KST3 111741Z 01029KT M05/M11 A3052 RMK A01 T10461107  RH  063%=      5-min Rain = 0
KST3 111742Z 01028G33KT M05/M11 A3052 RMK A01 T10461108  RH  062%=      5-min Rain = 0
KST3 111743Z 01024KT M05/M11 A3052 RMK A01 T10471110  RH  062%=      5-min Rain = 0
KST3 111744Z 02028KT M05/M11 A3052 RMK A01 T10461107  RH  062%=      5-min Rain = 0
KST3 111745Z 01026KT M05/M11 A3052 RMK A01 T10461108  RH  062%=      5-min Rain = 0
KST3 111746Z 02023G29KT M05/M11 A3052 RMK A01 T10461106  RH  062%=      5-min Rain = 0
KST3 111747Z 01028G33KT M04/M10 A3052 RMK A01 T10431104  RH  063%=      5-min Rain = 0
KST3 111748Z 00025KT M04/M11 A3052 RMK A01 T10441106  RH  062%=      5-min Rain = 0
KST3 111749Z 01023KT M04/M11 A3052 RMK A01 T10441106  RH  062%=      5-min Rain = 0
KST3 111750Z 01024G30KT M04/M11 A3052 RMK A01 T10431106  RH  062%=      5-min Rain = 0
KST3 111751Z 01024KT M04/M11 A3051 RMK A01 T10431107  RH  061%=      5-min Rain = 0
KST3 111752Z 01027KT M04/M11 A3051 RMK A01 T10421106  RH  061%=      5-min Rain = 0
KST3 111753Z 01026KT M04/M11 A3051 RMK A01 T10431108  RH  061%=      5-min Rain = 0
KST3 111754Z 01022G27KT M04/M11 A3051 RMK A01 T10431107  RH  061%=      5-min Rain = 0
KST3 111755Z 00022G27KT M04/M10 A3051 RMK A01 T10371099  RH  062%=      5-min Rain = 0
KST3 111756Z 01023KT M03/M10 A3052 RMK A01 T10331099  RH  061%=      5-min Rain = 0
KST3 111757Z 02025KT M03/M10 A3052 RMK A01 T10321100  RH  059%=      5-min Rain = 0
KST3 111758Z 02025G30KT M03/M10 A3052 RMK A01 T10331103  RH  058%=      5-min Rain = 0
KST3 111759Z 01026KT M04/M11 A3052 RMK A01 T10371107  RH  058%=      5-min Rain = 0
KST3 111800Z 01024G29KT M04/M11 A3052 RMK A01 T10381107  RH  059%=      5-min Rain = 0
KST3 111801Z 01022KT M04/M11 A3051 RMK A01 T10381105  RH  059%=      5-min Rain = 0
KST3 111802Z 01021KT M03/M10 A3051 RMK A01 T10341100  RH  060%=      5-min Rain = 0
KST3 111803Z 01021G27KT M03/M10 A3051 RMK A01 T10301098  RH  059%=      5-min Rain = 0
KST3 111804Z 00024G29KT M03/M10 A3051 RMK A01 T10291100  RH  058%=      5-min Rain = 0
KST3 111805Z 00027KT M03/M11 A3051 RMK A01 T10321105  RH  057%=      5-min Rain = 0
KST3 111806Z 01025KT M04/M11 A3051 RMK A01 T10351107  RH  057%=      5-min Rain = 0
KST3 111807Z 02023G28KT M04/M11 A3052 RMK A01 T10361107  RH  058%=      5-min Rain = 0
KST3 111808Z 01026KT M04/M11 A3052 RMK A01 T10381108  RH  059%=      5-min Rain = 0
KST3 111809Z 00023G28KT M04/M11 A3051 RMK A01 T10391107  RH  059%=      5-min Rain = 0
KST3 111810Z 00026G32KT M04/M11 A3051 RMK A01 T10381107  RH  059%=      5-min Rain = 0
KST3 111811Z 01027G33KT M04/M11 A3051 RMK A01 T10381108  RH  059%=      5-min Rain = 0
KST3 111812Z 01026G33KT M04/M11 A3051 RMK A01 T10371107  RH  059%=      5-min Rain = 0
KST3 111813Z 02028KT M04/M11 A3052 RMK A01 T10361106  RH  058%=      5-min Rain = 0
KST3 111814Z 02027KT M04/M11 A3051 RMK A01 T10361107  RH  058%=      5-min Rain = 0
KST3 111815Z 01025KT M04/M11 A3051 RMK A01 T10351106  RH  058%=      5-min Rain = 0
KST3 111816Z 02024KT M03/M10 A3051 RMK A01 T10341104  RH  058%=      5-min Rain = 0
KST3 111817Z 02024KT M03/M10 A3051 RMK A01 T10331104  RH  058%=      5-min Rain = 0
KST3 111818Z 01025KT M04/M11 A3051 RMK A01 T10351106  RH  058%=      5-min Rain = 0
KST3 111819Z 01026G31KT M04/M11 A3051 RMK A01 T10351107  RH  058%=      5-min Rain = 0
KST3 111820Z 01026KT M04/M11 A3051 RMK A01 T10351107  RH  057%=      5-min Rain = 0
KST3 111821Z 01023KT M03/M11 A3051 RMK A01 T10341106  RH  057%=      5-min Rain = 0
KST3 111822Z 01023G28KT M03/M11 A3051 RMK A01 T10331105  RH  057%=      5-min Rain = 0
KST3 111823Z 00028G35KT M03/M11 A3051 RMK A01 T10331106  RH  057%=      5-min Rain = 0
KST3 111824Z 00028KT M03/M11 A3051 RMK A01 T10321106  RH  057%=      5-min Rain = 0
KST3 111825Z 00029KT M03/M11 A305 RMK A01 T10311107  RH  055%=      5-min Rain = 0
KST3 111826Z 01023KT M03/M11 A305 RMK A01 T10331110  RH  055%=      5-min Rain = 0
KST3 111827Z 02029G35KT M03/M11 A3051 RMK A01 T10321107  RH  056%=      5-min Rain = 0
KST3 111828Z 01026KT M03/M11 A3051 RMK A01 T10321108  RH  055%=      5-min Rain = 0
KST3 111829Z 02026KT M03/M11 A3051 RMK A01 T10321108  RH  056%=      5-min Rain = 0
KST3 111830Z 02028G39KT M03/M11 A3051 RMK A01 T10311108  RH  056%=      5-min Rain = 0
KST3 111831Z 01029G35KT M03/M11 A3051 RMK A01 T10311109  RH  055%=      5-min Rain = 0
KST3 111832Z 01030G35KT M03/M11 A3051 RMK A01 T10301111  RH  054%=      5-min Rain = 0
KST3 111833Z 02028KT M03/M11 A3051 RMK A01 T10331114  RH  053%=      5-min Rain = 0
KST3 111834Z 01026G31KT M03/M11 A3051 RMK A01 T10321112  RH  054%=      5-min Rain = 0
KST3 111835Z 01029G35KT M03/M11 A3051 RMK A01 T10291110  RH  054%=      5-min Rain = 0
KST3 111836Z 01026G31KT M03/M11 A3051 RMK A01 T10281110  RH  053%=      5-min Rain = 0
KST3 111837Z 01026G31KT M03/M11 A3051 RMK A01 T10271110  RH  053%=      5-min Rain = 0
KST3 111838Z 01025G31KT M03/M11 A3051 RMK A01 T10261109  RH  053%=      5-min Rain = 0
KST3 111839Z 01026KT M03/M11 A3051 RMK A01 T10261109  RH  053%=      5-min Rain = 0
KST3 111840Z 01025G30KT M03/M11 A305 RMK A01 T10261109  RH  053%=      5-min Rain = 0
KST3 111841Z 01026G33KT M03/M11 A305 RMK A01 T10251108  RH  053%=      5-min Rain = 0
KST3 111842Z 01026KT M02/M11 A305 RMK A01 T10241109  RH  052%=      5-min Rain = 0
KST3 111843Z 01027G32KT M02/M11 A305 RMK A01 T10241108  RH  053%=      5-min Rain = 0
KST3 111844Z 02029KT M03/M11 A3051 RMK A01 T10261109  RH  053%=      5-min Rain = 0
KST3 111845Z 01027KT M03/M11 A305 RMK A01 T10281109  RH  053%=      5-min Rain = 0
KST3 111846Z 02030KT M03/M11 A3051 RMK A01 T10281109  RH  054%=      5-min Rain = 0
KST3 111847Z 01025G30KT M03/M11 A305 RMK A01 T10301110  RH  054%=      5-min Rain = 0
KST3 111848Z 36023KT M03/M11 A305 RMK A01 T10311110  RH  055%=      5-min Rain = 0
KST3 111849Z 36021KT M03/M11 A305 RMK A01 T10291105  RH  056%=      5-min Rain = 0
KST3 111850Z 00022G31KT M03/M10 A305 RMK A01 T10271103  RH  056%=      5-min Rain = 0
KST3 111851Z 00023G30KT M03/M10 A305 RMK A01 T10251102  RH  056%=      5-min Rain = 0
KST3 111852Z 00025KT M03/M10 A305 RMK A01 T10261104  RH  055%=      5-min Rain = 0
KST3 111853Z 35025G31KT M03/M11 A305 RMK A01 T10291107  RH  055%=      5-min Rain = 0
KST3 111854Z 35024KT M03/M11 A305 RMK A01 T10291106  RH  055%=      5-min Rain = 0
KST3 111855Z 36029G34KT M03/M11 A305 RMK A01 T10281105  RH  055%=      5-min Rain = 0
KST3 111856Z 00028KT M03/M11 A305 RMK A01 T10281107  RH  054%=      5-min Rain = 0
KST3 111857Z 36022G27KT M03/M11 A305 RMK A01 T10291108  RH  055%=      5-min Rain = 0
KST3 111858Z 02020G25KT M03/M11 A305 RMK A01 T10271105  RH  055%=      5-min Rain = 0
KST3 111859Z 01022G28KT M03/M10 A305 RMK A01 T10251104  RH  055%=      5-min Rain = 0
KST3 111900Z 00026G34KT M02/M10 A305 RMK A01 T10241104  RH  054%=      5-min Rain = 0
KST3 111901Z 01026G32KT M02/M11 A305 RMK A01 T10241107  RH  053%=      5-min Rain = 0
KST3 111902Z 01026G32KT M03/M11 A305 RMK A01 T10261108  RH  053%=      5-min Rain = 0
KST3 111903Z 01029G34KT M02/M11 A305 RMK A01 T10241107  RH  053%=      5-min Rain = 0
KST3 111904Z 01027KT M02/M11 A305 RMK A01 T10231108  RH  052%=      5-min Rain = 0
KST3 111905Z 01026KT M02/M11 A305 RMK A01 T10231108  RH  052%=      5-min Rain = 0
KST3 111906Z 02025G31KT M02/M11 A305 RMK A01 T10241108  RH  052%=      5-min Rain = 0
KST3 111907Z 02026G31KT M02/M11 A305 RMK A01 T10231107  RH  053%=      5-min Rain = 0
KST3 111908Z 02026G32KT M02/M11 A305 RMK A01 T10211105  RH  053%=      5-min Rain = 0
KST3 111909Z 01029KT M02/M11 A305 RMK A01 T10201106  RH  052%=      5-min Rain = 0
KST3 111910Z 02026KT M02/M11 A305 RMK A01 T10231108  RH  052%=      5-min Rain = 0
KST3 111911Z 01024KT M02/M11 A305 RMK A01 T10231107  RH  052%=      5-min Rain = 0
KST3 111912Z 00030KT M02/M11 A305 RMK A01 T10201105  RH  052%=      5-min Rain = 0
KST3 111913Z 00027G32KT M02/M11 A305 RMK A01 T10231110  RH  051%=      5-min Rain = 0
KST3 111914Z 01026G31KT M03/M11 A305 RMK A01 T10251111  RH  052%=      5-min Rain = 0
KST3 111915Z 02026KT M03/M11 A305 RMK A01 T10251110  RH  052%=      5-min Rain = 0
KST3 111916Z 02027G32KT M02/M11 A305 RMK A01 T10221106  RH  053%=      5-min Rain = 0
KST3 111917Z 01027G33KT M02/M11 A305 RMK A01 T10221107  RH  052%=      5-min Rain = 0
KST3 111918Z 01024KT M02/M11 A305 RMK A01 T10221107  RH  052%=      5-min Rain = 0
KST3 111919Z 01022G30KT M02/M10 A305 RMK A01 T10201103  RH  053%=      5-min Rain = 0
KST3 111920Z 01028G36KT M02/M10 A305 RMK A01 T10181104  RH  052%=      5-min Rain = 0
KST3 111921Z 00028G34KT M02/M11 A305 RMK A01 T10211108  RH  051%=      5-min Rain = 0
KST3 111922Z 00027KT M02/M11 A305 RMK A01 T10241110  RH  052%=      5-min Rain = 0
KST3 111923Z 01022G27KT M02/M11 A305 RMK A01 T10241108  RH  052%=      5-min Rain = 0
KST3 111924Z 01022G27KT M02/M11 A3049 RMK A01 T10211105  RH  053%=      5-min Rain = 0
KST3 111925Z 01028G34KT M02/M10 A305 RMK A01 T10181104  RH  052%=      5-min Rain = 0
KST3 111926Z 01027G32KT M02/M11 A305 RMK A01 T10171105  RH  051%=      5-min Rain = 0
KST3 111927Z 01027KT M02/M11 A305 RMK A01 T10181106  RH  051%=      5-min Rain = 0
KST3 111928Z 01028G35KT M02/M11 A305 RMK A01 T10181106  RH  051%=      5-min Rain = 0
KST3 111929Z 01032KT M02/M11 A305 RMK A01 T10171107  RH  050%=      5-min Rain = 0
KST3 111930Z 01030G35KT M02/M11 A305 RMK A01 T10211110  RH  050%=      5-min Rain = 0
KST3 111931Z 01026G33KT M02/M11 A305 RMK A01 T10221109  RH  051%=      5-min Rain = 0
KST3 111932Z 01028KT M02/M11 A305 RMK A01 T10201106  RH  052%=      5-min Rain = 0
KST3 111933Z 01027G32KT M02/M11 A305 RMK A01 T10191106  RH  051%=      5-min Rain = 0
KST3 111934Z 02022KT M02/M11 A305 RMK A01 T10161105  RH  051%=      5-min Rain = 0
KST3 111935Z 02026G33KT M01/M10 A305 RMK A01 T10141104  RH  050%=      5-min Rain = 0
KST3 111936Z 01032KT M02/M11 A305 RMK A01 T10151108  RH  049%=      5-min Rain = 0
KST3 111937Z 00029KT M02/M11 A305 RMK A01 T10181111  RH  049%=      5-min Rain = 0
KST3 111938Z 00025G30KT M02/M11 A305 RMK A01 T10191110  RH  050%=      5-min Rain = 0
KST3 111939Z 01023G28KT M02/M11 A305 RMK A01 T10191110  RH  050%=      5-min Rain = 0
KST3 111940Z 02026G31KT M02/M11 A305 RMK A01 T10171107  RH  050%=      5-min Rain = 0
KST3 111941Z 00024G29KT M02/M11 A305 RMK A01 T10161107  RH  050%=      5-min Rain = 0
KST3 111942Z 00023G28KT M02/M11 A305 RMK A01 T10151105  RH  050%=      5-min Rain = 0
KST3 111943Z 01025G30KT M02/M11 A305 RMK A01 T10161107  RH  050%=      5-min Rain = 0
KST3 111944Z 01017KT M02/M11 A305 RMK A01 T10171106  RH  051%=      5-min Rain = 0
KST3 111945Z 01021KT M02/M10 A305 RMK A01 T10151103  RH  051%=      5-min Rain = 0
KST3 111946Z 01024G30KT M01/M10 A305 RMK A01 T10141104  RH  050%=      5-min Rain = 0
KST3 111947Z 00024G33KT M02/M11 A305 RMK A01 T10181109  RH  050%=      5-min Rain = 0
KST3 111948Z 01027KT M02/M11 A305 RMK A01 T10221111  RH  051%=      5-min Rain = 0
KST3 111949Z 36025G31KT M02/M11 A305 RMK A01 T10211110  RH  051%=      5-min Rain = 0
KST3 111950Z 35024G29KT M02/M11 A305 RMK A01 T10211110  RH  051%=      5-min Rain = 0
KST3 111951Z 35024G31KT M02/M11 A305 RMK A01 T10221111  RH  050%=      5-min Rain = 0
KST3 111952Z 01021G26KT M02/M11 A305 RMK A01 T10191109  RH  050%=      5-min Rain = 0
KST3 111953Z 01025G32KT M02/M11 A305 RMK A01 T10151107  RH  050%=      5-min Rain = 0
KST3 111954Z 01027G32KT M02/M11 A3051 RMK A01 T10161111  RH  048%=      5-min Rain = 0
KST3 111955Z 01028G34KT M02/M12 A3051 RMK A01 T10211116  RH  048%=      5-min Rain = 0
KST3 111956Z 02025KT M02/M12 A3051 RMK A01 T10221116  RH  049%=      5-min Rain = 0
KST3 111957Z 02023KT M02/M12 A3051 RMK A01 T10221116  RH  049%=      5-min Rain = 0
KST3 111958Z 02023G29KT M02/M11 A3051 RMK A01 T10211114  RH  049%=      5-min Rain = 0
KST3 111959Z 01026G31KT M02/M11 A3051 RMK A01 T10201114  RH  048%=      5-min Rain = 0
KST3 112000Z 01025KT M02/M12 A3051 RMK A01 T10221118  RH  048%=      5-min Rain = 0
KST3 112001Z 02027G32KT M02/M12 A3051 RMK A01 T10241121  RH  047%=      5-min Rain = 0
KST3 112002Z 01026G32KT M03/M12 A3051 RMK A01 T10251122  RH  047%=      5-min Rain = 0
KST3 112003Z 01029G35KT M02/M12 A3051 RMK A01 T10231121  RH  047%=      5-min Rain = 0
KST3 112004Z 01025G32KT M02/M12 A3051 RMK A01 T10241123  RH  047%=      5-min Rain = 0
KST3 112005Z 01026KT M02/M12 A3051 RMK A01 T10231122  RH  047%=      5-min Rain = 0
KST3 112006Z 01025KT M02/M12 A3051 RMK A01 T10241123  RH  047%=      5-min Rain = 0
KST3 112007Z 01022G27KT M02/M12 A3051 RMK A01 T10231121  RH  047%=      5-min Rain = 0
KST3 112008Z 01025G30KT M02/M12 A3051 RMK A01 T10221118  RH  048%=      5-min Rain = 0
KST3 112009Z 02023G30KT M02/M12 A3051 RMK A01 T10201117  RH  047%=      5-min Rain = 0
KST3 112010Z 00020G26KT M02/M12 A305 RMK A01 T10191118  RH  047%=      5-min Rain = 0
KST3 112011Z 01023G30KT M02/M12 A305 RMK A01 T10191118  RH  047%=      5-min Rain = 0
KST3 112012Z 01022KT M02/M12 A3051 RMK A01 T10181116  RH  047%=      5-min Rain = 0
KST3 112013Z 02020KT M02/M12 A3051 RMK A01 T10181116  RH  047%=      5-min Rain = 0
KST3 112014Z 01024G30KT M02/M12 A3051 RMK A01 T10181115  RH  047%=      5-min Rain = 0
KST3 112015Z 00024G30KT M02/M12 A3051 RMK A01 T10191117  RH  047%=      5-min Rain = 0
KST3 112016Z 00023G28KT M02/M12 A3051 RMK A01 T10211117  RH  048%=      5-min Rain = 0
KST3 112017Z 00025KT M02/M12 A3051 RMK A01 T10231118  RH  048%=      5-min Rain = 0
KST3 112018Z 00023G28KT M02/M12 A3051 RMK A01 T10241118  RH  049%=      5-min Rain = 0
KST3 112019Z 00026KT M02/M12 A3051 RMK A01 T10231117  RH  049%=      5-min Rain = 0
KST3 112020Z 00024KT M02/M12 A3051 RMK A01 T10231119  RH  048%=      5-min Rain = 0
KST3 112021Z 00027KT M02/M12 A3051 RMK A01 T10241119  RH  048%=      5-min Rain = 0
KST3 112022Z 36025G30KT M02/M12 A3051 RMK A01 T10241121  RH  047%=      5-min Rain = 0
KST3 112023Z 00025KT M03/M12 A3051 RMK A01 T10261122  RH  047%=      5-min Rain = 0
KST3 112024Z 00024KT M03/M12 A3051 RMK A01 T10251122  RH  047%=      5-min Rain = 0
KST3 112025Z 36024G29KT M03/M12 A3051 RMK A01 T10251123  RH  047%=      5-min Rain = 0
KST3 112026Z 00025KT M03/M12 A3051 RMK A01 T10261124  RH  047%=      5-min Rain = 0
KST3 112027Z 01026G31KT M03/M12 A3052 RMK A01 T10251123  RH  047%=      5-min Rain = 0
KST3 112028Z 01022KT M03/M12 A3051 RMK A01 T10251124  RH  046%=      5-min Rain = 0
KST3 112029Z 01021G27KT M03/M13 A3052 RMK A01 T10261126  RH  046%=      5-min Rain = 0
KST3 112030Z 01021G26KT M03/M13 A3052 RMK A01 T10251126  RH  046%=      5-min Rain = 0
KST3 112031Z 01021G26KT M02/M12 A3052 RMK A01 T10231124  RH  046%=      5-min Rain = 0
KST3 112032Z 01024KT M02/M13 A3052 RMK A01 T10211126  RH  045%=      5-min Rain = 0
KST3 112033Z 01024KT M03/M13 A3052 RMK A01 T10251132  RH  044%=      5-min Rain = 0
KST3 112034Z 01024KT M03/M13 A3052 RMK A01 T10271134  RH  044%=      5-min Rain = 0
KST3 112035Z 00019KT M03/M13 A3051 RMK A01 T10271134  RH  043%=      5-min Rain = 0
KST3 112036Z 01019KT M03/M13 A3051 RMK A01 T10261133  RH  043%=      5-min Rain = 0
KST3 112037Z 01023KT M03/M14 A3051 RMK A01 T10251135  RH  043%=      5-min Rain = 0
KST3 112038Z 00022KT M03/M14 A3051 RMK A01 T10261138  RH  042%=      5-min Rain = 0
KST3 112039Z 01022KT M03/M14 A3051 RMK A01 T10261140  RH  041%=      5-min Rain = 0
KST3 112040Z 01023KT M03/M14 A3051 RMK A01 T10261140  RH  041%=      5-min Rain = 0
KST3 112041Z 01025KT M03/M14 A3051 RMK A01 T10251140  RH  041%=      5-min Rain = 0
KST3 112042Z 01022G27KT M03/M14 A3051 RMK A01 T10261144  RH  040%=      5-min Rain = 0
KST3 112043Z 01021KT M03/M14 A3051 RMK A01 T10261142  RH  040%=      5-min Rain = 0
KST3 112044Z 02022KT M02/M14 A3051 RMK A01 T10241141  RH  040%=      5-min Rain = 0
KST3 112045Z 02025G30KT M02/M14 A3051 RMK A01 T10241142  RH  040%=      5-min Rain = 0
KST3 112046Z 01025KT M03/M15 A3051 RMK A01 T10271146  RH  039%=      5-min Rain = 0
KST3 112047Z 00024G29KT M03/M15 A3051 RMK A01 T10281146  RH  040%=      5-min Rain = 0
KST3 112048Z 01025KT M03/M15 A3051 RMK A01 T10291145  RH  040%=      5-min Rain = 0
KST3 112049Z 01022KT M03/M15 A3051 RMK A01 T10301145  RH  041%=      5-min Rain = 0
KST3 112050Z 01022KT M03/M14 A3051 RMK A01 T10291143  RH  041%=      5-min Rain = 0
KST3 112051Z 01024G29KT M03/M14 A3051 RMK A01 T10291143  RH  041%=      5-min Rain = 0
KST3 112052Z 01028KT M03/M14 A3051 RMK A01 T10301144  RH  041%=      5-min Rain = 0
KST3 112053Z 01024KT M03/M14 A3051 RMK A01 T10301144  RH  041%=      5-min Rain = 0
KST3 112054Z 01021G27KT M03/M14 A3051 RMK A01 T10281142  RH  041%=      5-min Rain = 0
KST3 112055Z 01026KT M03/M14 A3051 RMK A01 T10261141  RH  041%=      5-min Rain = 0
KST3 112056Z 00023G28KT M03/M14 A3051 RMK A01 T10271144  RH  040%=      5-min Rain = 0
KST3 112057Z 00022G27KT M03/M14 A3051 RMK A01 T10271143  RH  041%=      5-min Rain = 0
KST3 112058Z 01019KT M03/M14 A3051 RMK A01 T10261142  RH  041%=      5-min Rain = 0
KST3 112059Z 01025G31KT M02/M14 A3051 RMK A01 T10231139  RH  041%=      5-min Rain = 0
KST3 112100Z 01027G32KT M02/M14 A3052 RMK A01 T10241141  RH  040%=      5-min Rain = 0
KST3 112101Z 01024KT M03/M14 A3052 RMK A01 T10251142  RH  040%=      5-min Rain = 0
KST3 112102Z 00022G27KT M03/M14 A3051 RMK A01 T10271143  RH  041%=      5-min Rain = 0
KST3 112103Z 00022KT M03/M14 A3052 RMK A01 T10261141  RH  041%=      5-min Rain = 0
KST3 112104Z 01021KT M02/M14 A3052 RMK A01 T10241137  RH  041%=      5-min Rain = 0
KST3 112105Z 01022G28KT M02/M14 A3052 RMK A01 T10221138  RH  041%=      5-min Rain = 0
KST3 112106Z 01021KT M02/M14 A3052 RMK A01 T10241139  RH  041%=      5-min Rain = 0
KST3 112107Z 01019G27KT M02/M14 A3052 RMK A01 T10241139  RH  041%=      5-min Rain = 0
KST3 112108Z 02023G28KT M02/M14 A3052 RMK A01 T10231137  RH  041%=      5-min Rain = 0
KST3 112109Z 02022KT M02/M14 A3052 RMK A01 T10211137  RH  041%=      5-min Rain = 0
KST3 112110Z 01020KT M02/M14 A3052 RMK A01 T10241140  RH  041%=      5-min Rain = 0
KST3 112111Z 01016KT M02/M14 A3052 RMK A01 T10231137  RH  041%=      5-min Rain = 0
KST3 112112Z 01019KT M02/M13 A3052 RMK A01 T10191133  RH  041%=      5-min Rain = 0
KST3 112113Z 02020KT M02/M13 A3052 RMK A01 T10171133  RH  041%=      5-min Rain = 0
KST3 112114Z 02020KT M02/M14 A3052 RMK A01 T10191136  RH  041%=      5-min Rain = 0
KST3 112115Z 01021KT M02/M14 A3052 RMK A01 T10221138  RH  041%=      5-min Rain = 0
KST3 112116Z 01020KT M02/M14 A3052 RMK A01 T10231137  RH  041%=      5-min Rain = 0
KST3 112117Z 00017KT M02/M14 A3052 RMK A01 T10241138  RH  041%=      5-min Rain = 0
KST3 112118Z 01022KT M02/M14 A3052 RMK A01 T10241137  RH  042%=      5-min Rain = 0
KST3 112119Z 01023KT M02/M13 A3052 RMK A01 T10231134  RH  042%=      5-min Rain = 0
KST3 112120Z 00019KT M02/M13 A3052 RMK A01 T10211132  RH  042%=      5-min Rain = 0
KST3 112121Z 35019G24KT M02/M13 A3052 RMK A01 T10201132  RH  042%=      5-min Rain = 0
KST3 112122Z 36020G25KT M02/M13 A3052 RMK A01 T10211133  RH  042%=      5-min Rain = 0
KST3 112123Z 01020G25KT M02/M13 A3052 RMK A01 T10201132  RH  042%=      5-min Rain = 0
KST3 112124Z 01019KT M02/M13 A3052 RMK A01 T10181130  RH  042%=      5-min Rain = 0
KST3 112125Z 02021KT M02/M13 A3052 RMK A01 T10171130  RH  042%=      5-min Rain = 0
KST3 112126Z 01024KT M02/M13 A3052 RMK A01 T10181132  RH  042%=      5-min Rain = 0
KST3 112127Z 01020KT M02/M13 A3052 RMK A01 T10201133  RH  042%=      5-min Rain = 0
KST3 112128Z 01020G26KT M02/M13 A3052 RMK A01 T10201132  RH  042%=      5-min Rain = 0
KST3 112129Z 00022KT M02/M13 A3052 RMK A01 T10211132  RH  042%=      5-min Rain = 0
KST3 112130Z 01019G24KT M02/M13 A3052 RMK A01 T10221133  RH  042%=      5-min Rain = 0
KST3 112131Z 01022G29KT M02/M13 A3051 RMK A01 T10211131  RH  043%=      5-min Rain = 0
KST3 112132Z 02024KT M02/M13 A3051 RMK A01 T10201130  RH  043%=      5-min Rain = 0
KST3 112133Z 02023G29KT M02/M13 A3052 RMK A01 T10191129  RH  043%=      5-min Rain = 0
KST3 112134Z 01024KT M02/M13 A3052 RMK A01 T10191130  RH  043%=      5-min Rain = 0
KST3 112135Z 00020KT M02/M13 A3052 RMK A01 T10211131  RH  043%=      5-min Rain = 0
KST3 112136Z 01018KT M02/M13 A3051 RMK A01 T10221131  RH  043%=      5-min Rain = 0
KST3 112137Z 01019G25KT M02/M13 A3051 RMK A01 T10201130  RH  043%=      5-min Rain = 0
KST3 112138Z 00024KT M02/M13 A3051 RMK A01 T10201131  RH  043%=      5-min Rain = 0
KST3 112139Z 00025KT M02/M13 A3051 RMK A01 T10211132  RH  042%=      5-min Rain = 0
KST3 112140Z 36022KT M02/M13 A3051 RMK A01 T10211132  RH  042%=      5-min Rain = 0
KST3 112141Z 36024G29KT M02/M13 A3051 RMK A01 T10211131  RH  043%=      5-min Rain = 0
KST3 112142Z 01019KT M02/M13 A3052 RMK A01 T10221132  RH  043%=      5-min Rain = 0
KST3 112143Z 01020KT M02/M13 A3052 RMK A01 T10221132  RH  043%=      5-min Rain = 0
KST3 112144Z 00022G28KT M02/M13 A3051 RMK A01 T10221132  RH  043%=      5-min Rain = 0
KST3 112145Z 01027KT M02/M13 A3052 RMK A01 T10211133  RH  042%=      5-min Rain = 0
KST3 112146Z 01022KT M02/M14 A3051 RMK A01 T10231136  RH  042%=      5-min Rain = 0
KST3 112147Z 02021KT M02/M14 A3052 RMK A01 T10231135  RH  042%=      5-min Rain = 0
KST3 112148Z 02021KT M02/M13 A3051 RMK A01 T10221134  RH  042%=      5-min Rain = 0
KST3 112149Z 01022G27KT M02/M14 A3051 RMK A01 T10231136  RH  042%=      5-min Rain = 0
KST3 112150Z 02023KT M02/M14 A3051 RMK A01 T10231135  RH  042%=      5-min Rain = 0
KST3 112151Z 02021G26KT M02/M14 A3052 RMK A01 T10231135  RH  042%=      5-min Rain = 0
KST3 112152Z 01021KT M02/M13 A3052 RMK A01 T10211134  RH  042%=      5-min Rain = 0
KST3 112153Z 01027KT M02/M14 A3052 RMK A01 T10211137  RH  041%=      5-min Rain = 0
KST3 112154Z 01025KT M02/M14 A3052 RMK A01 T10231139  RH  040%=      5-min Rain = 0
KST3 112155Z 01026KT M02/M14 A3052 RMK A01 T10241140  RH  040%=      5-min Rain = 0
KST3 112156Z 01024KT M02/M14 A3052 RMK A01 T10241140  RH  041%=      5-min Rain = 0
KST3 112157Z 01024KT M03/M14 A3052 RMK A01 T10251141  RH  040%=      5-min Rain = 0
KST3 112158Z 02023KT M03/M14 A3053 RMK A01 T10251141  RH  041%=      5-min Rain = 0
KST3 112159Z 02021KT M03/M14 A3053 RMK A01 T10251141  RH  041%=      5-min Rain = 0
KST3 112200Z 01022KT M03/M14 A3053 RMK A01 T10261140  RH  041%=      5-min Rain = 0
KST3 112201Z 02017KT M03/M14 A3052 RMK A01 T10271141  RH  041%=      5-min Rain = 0
KST3 112202Z 02019KT M03/M14 A3052 RMK A01 T10271140  RH  042%=      5-min Rain = 0
KST3 112203Z 02022G27KT M03/M14 A3053 RMK A01 T10261139  RH  042%=      5-min Rain = 0
KST3 112204Z 01022KT M03/M14 A3052 RMK A01 T10261139  RH  042%=      5-min Rain = 0
KST3 112205Z 01021KT M03/M14 A3053 RMK A01 T10261139  RH  041%=      5-min Rain = 0
KST3 112206Z 00020G25KT M03/M14 A3053 RMK A01 T10261140  RH  041%=      5-min Rain = 0
KST3 112207Z 36021KT M03/M14 A3052 RMK A01 T10261140  RH  041%=      5-min Rain = 0
KST3 112208Z 01022KT M03/M14 A3052 RMK A01 T10261140  RH  041%=      5-min Rain = 0
KST3 112209Z 01017KT M03/M14 A3053 RMK A01 T10261140  RH  041%=      5-min Rain = 0
KST3 112210Z 01016KT M02/M14 A3053 RMK A01 T10241137  RH  041%=      5-min Rain = 0
KST3 112211Z 01020KT M02/M14 A3053 RMK A01 T10211136  RH  041%=      5-min Rain = 0
KST3 112212Z 02024G29KT M02/M14 A3053 RMK A01 T10221138  RH  040%=      5-min Rain = 0
KST3 112213Z 02021KT M02/M14 A3053 RMK A01 T10231140  RH  040%=      5-min Rain = 0
KST3 112214Z 02021G26KT M02/M14 A3053 RMK A01 T10241140  RH  040%=      5-min Rain = 0
KST3 112215Z 01021KT M02/M14 A3053 RMK A01 T10241140  RH  040%=      5-min Rain = 0
KST3 112216Z 00021G27KT M02/M14 A3053 RMK A01 T10231140  RH  040%=      5-min Rain = 0
KST3 112217Z 01023KT M02/M14 A3053 RMK A01 T10241140  RH  040%=      5-min Rain = 0
KST3 112218Z 01021KT M02/M14 A3053 RMK A01 T10241141  RH  040%=      5-min Rain = 0
KST3 112219Z 01022KT M02/M14 A3053 RMK A01 T10241141  RH  040%=      5-min Rain = 0
KST3 112220Z 02020KT M03/M14 A3053 RMK A01 T10251141  RH  041%=      5-min Rain = 0
KST3 112221Z 02019G24KT M03/M14 A3053 RMK A01 T10251141  RH  041%=      5-min Rain = 0
KST3 112222Z 02020KT M03/M14 A3053 RMK A01 T10251140  RH  041%=      5-min Rain = 0
KST3 112223Z 02024KT M03/M14 A3053 RMK A01 T10251140  RH  041%=      5-min Rain = 0
KST3 112224Z 01019G24KT M03/M14 A3053 RMK A01 T10251140  RH  041%=      5-min Rain = 0
KST3 112225Z 01024KT M02/M14 A3053 RMK A01 T10231140  RH  040%=      5-min Rain = 0
KST3 112226Z 01023KT M02/M14 A3053 RMK A01 T10241143  RH  040%=      5-min Rain = 0
KST3 112227Z 01023KT M03/M14 A3053 RMK A01 T10251144  RH  040%=      5-min Rain = 0
KST3 112228Z 01021G26KT M03/M14 A3053 RMK A01 T10251144  RH  040%=      5-min Rain = 0
KST3 112229Z 02025G30KT M03/M14 A3053 RMK A01 T10261144  RH  040%=      5-min Rain = 0
KST3 112230Z 02024KT M03/M15 A3054 RMK A01 T10271146  RH  039%=      5-min Rain = 0
KST3 112231Z 02021KT M03/M15 A3054 RMK A01 T10271146  RH  039%=      5-min Rain = 0
KST3 112232Z 01023KT M03/M15 A3054 RMK A01 T10271146  RH  039%=      5-min Rain = 0
KST3 112233Z 01023KT M03/M15 A3054 RMK A01 T10271147  RH  039%=      5-min Rain = 0
KST3 112234Z 01021KT M03/M15 A3054 RMK A01 T10281149  RH  039%=      5-min Rain = 0
KST3 112235Z 01022KT M03/M15 A3054 RMK A01 T10281149  RH  039%=      5-min Rain = 0
KST3 112236Z 02018KT M03/M15 A3054 RMK A01 T10291149  RH  039%=      5-min Rain = 0
KST3 112237Z 02022KT M03/M15 A3054 RMK A01 T10281148  RH  039%=      5-min Rain = 0
KST3 112238Z 01024KT M03/M15 A3054 RMK A01 T10291150  RH  039%=      5-min Rain = 0
KST3 112239Z 02023KT M03/M15 A3054 RMK A01 T10301151  RH  039%=      5-min Rain = 0
KST3 112240Z 01023KT M03/M15 A3054 RMK A01 T10311152  RH  039%=      5-min Rain = 0
KST3 112241Z 02022G27KT M03/M15 A3054 RMK A01 T10311150  RH  039%=      5-min Rain = 0
KST3 112242Z 02024KT M03/M15 A3054 RMK A01 T10311151  RH  039%=      5-min Rain = 0
KST3 112243Z 02022G27KT M03/M15 A3054 RMK A01 T10311151  RH  039%=      5-min Rain = 0
KST3 112244Z 01023KT M03/M15 A3053 RMK A01 T10321151  RH  039%=      5-min Rain = 0
KST3 112245Z 01021KT M03/M15 A3053 RMK A01 T10321151  RH  039%=      5-min Rain = 0
KST3 112246Z 01019KT M03/M15 A3053 RMK A01 T10321150  RH  040%=      5-min Rain = 0
KST3 112247Z 01020KT M03/M15 A3053 RMK A01 T10321149  RH  040%=      5-min Rain = 0
KST3 112248Z 01018KT M03/M15 A3053 RMK A01 T10321149  RH  040%=      5-min Rain = 0
KST3 112249Z 02018KT M03/M15 A3054 RMK A01 T10321149  RH  040%=      5-min Rain = 0
KST3 112250Z 01018KT M03/M15 A3054 RMK A01 T10321148  RH  040%=      5-min Rain = 0
KST3 112251Z 01021KT M03/M15 A3054 RMK A01 T10321148  RH  040%=      5-min Rain = 0
KST3 112252Z 02019G24KT M03/M15 A3054 RMK A01 T10331149  RH  040%=      5-min Rain = 0
KST3 112253Z 01015KT M03/M15 A3054 RMK A01 T10331148  RH  041%=      5-min Rain = 0
KST3 112254Z 02017KT M03/M15 A3054 RMK A01 T10331147  RH  041%=      5-min Rain = 0
KST3 112255Z 02018KT M03/M15 A3054 RMK A01 T10331148  RH  041%=      5-min Rain = 0
KST3 112256Z 02019KT M03/M15 A3054 RMK A01 T10331148  RH  041%=      5-min Rain = 0
KST3 112257Z 02017KT M03/M15 A3054 RMK A01 T10341148  RH  041%=      5-min Rain = 0
KST3 112258Z 02018KT M03/M15 A3054 RMK A01 T10341148  RH  041%=      5-min Rain = 0
KST3 112259Z 02020KT M03/M15 A3054 RMK A01 T10341148  RH  041%=      5-min Rain = 0
KST3 112300Z 02020KT M03/M15 A3054 RMK A01 T10341148  RH  041%=      5-min Rain = 0
KST3 112301Z 02019KT M04/M15 A3054 RMK A01 T10351148  RH  041%=      5-min Rain = 0
KST3 112302Z 02020G26KT M04/M15 A3054 RMK A01 T10351147  RH  042%=      5-min Rain = 0
KST3 112303Z 01020G26KT M04/M15 A3054 RMK A01 T10351147  RH  042%=      5-min Rain = 0
KST3 112304Z 01022KT M04/M15 A3054 RMK A01 T10351146  RH  042%=      5-min Rain = 0
KST3 112305Z 02021KT M04/M15 A3054 RMK A01 T10351147  RH  042%=      5-min Rain = 0
KST3 112306Z 02020KT M04/M15 A3054 RMK A01 T10351147  RH  042%=      5-min Rain = 0
KST3 112307Z 02017KT M04/M15 A3054 RMK A01 T10351147  RH  042%=      5-min Rain = 0
KST3 112308Z 01019KT M04/M15 A3054 RMK A01 T10351146  RH  042%=      5-min Rain = 0
KST3 112309Z 01018KT M04/M15 A3054 RMK A01 T10351145  RH  042%=      5-min Rain = 0
KST3 112310Z 01015KT M04/M14 A3054 RMK A01 T10351144  RH  043%=      5-min Rain = 0
KST3 112311Z 02017KT M04/M14 A3054 RMK A01 T10351144  RH  043%=      5-min Rain = 0
KST3 112312Z 02020KT M04/M14 A3054 RMK A01 T10351143  RH  043%=      5-min Rain = 0
KST3 112313Z 02019G24KT M04/M14 A3054 RMK A01 T10351144  RH  043%=      5-min Rain = 0
KST3 112314Z 02019KT M04/M14 A3054 RMK A01 T10361144  RH  043%=      5-min Rain = 0
KST3 112315Z 02017KT M04/M14 A3054 RMK A01 T10361144  RH  043%=      5-min Rain = 0
KST3 112316Z 02018KT M04/M14 A3054 RMK A01 T10361143  RH  043%=      5-min Rain = 0
KST3 112317Z 02018KT M04/M14 A3054 RMK A01 T10371143  RH  043%=      5-min Rain = 0
KST3 112318Z 01016KT M04/M14 A3054 RMK A01 T10371143  RH  044%=      5-min Rain = 0
KST3 112319Z 01021KT M04/M14 A3054 RMK A01 T10371143  RH  044%=      5-min Rain = 0
KST3 112320Z 01020KT M04/M14 A3054 RMK A01 T10371143  RH  044%=      5-min Rain = 0
KST3 112321Z 01018KT M04/M14 A3054 RMK A01 T10371143  RH  043%=      5-min Rain = 0
KST3 112322Z 01016KT M04/M14 A3054 RMK A01 T10371143  RH  044%=      5-min Rain = 0
KST3 112323Z 02015KT M04/M14 A3054 RMK A01 T10381143  RH  044%=      5-min Rain = 0
KST3 112324Z 01017KT M04/M14 A3055 RMK A01 T10381143  RH  044%=      5-min Rain = 0
KST3 112325Z 02021KT M04/M14 A3055 RMK A01 T10381143  RH  044%=      5-min Rain = 0
KST3 112326Z 01017KT M04/M14 A3055 RMK A01 T10391144  RH  044%=      5-min Rain = 0
KST3 112327Z 02020KT M04/M15 A3055 RMK A01 T10391145  RH  044%=      5-min Rain = 0
KST3 112328Z 02020KT M04/M15 A3055 RMK A01 T10391145  RH  043%=      5-min Rain = 0
KST3 112329Z 02017KT M04/M15 A3055 RMK A01 T10391145  RH  043%=      5-min Rain = 0
KST3 112330Z 02019KT M04/M15 A3055 RMK A01 T10391146  RH  043%=      5-min Rain = 0
KST3 112331Z 02018KT M04/M15 A3055 RMK A01 T10401146  RH  043%=      5-min Rain = 0
KST3 112332Z 02017KT M04/M15 A3055 RMK A01 T10401146  RH  043%=      5-min Rain = 0
KST3 112333Z 02014KT M04/M15 A3055 RMK A01 T10401146  RH  044%=      5-min Rain = 0
KST3 112334Z 01013KT M04/M15 A3055 RMK A01 T10411145  RH  044%=      5-min Rain = 0
KST3 112335Z 02013KT M04/M15 A3055 RMK A01 T10421145  RH  044%=      5-min Rain = 0
KST3 112336Z 02016G21KT M04/M14 A3055 RMK A01 T10421144  RH  045%=      5-min Rain = 0
KST3 112337Z 02017KT M04/M15 A3055 RMK A01 T10421145  RH  045%=      5-min Rain = 0
KST3 112338Z 01017KT M04/M15 A3055 RMK A01 T10421145  RH  044%=      5-min Rain = 0
KST3 112339Z 01015KT M04/M15 A3056 RMK A01 T10421145  RH  044%=      5-min Rain = 0
KST3 112340Z 02014KT M04/M15 A3056 RMK A01 T10421145  RH  045%=      5-min Rain = 0
KST3 112341Z 02015KT M04/M14 A3056 RMK A01 T10421144  RH  045%=      5-min Rain = 0
KST3 112342Z 02015KT M04/M15 A3056 RMK A01 T10431145  RH  045%=      5-min Rain = 0
KST3 112343Z 02016KT M04/M15 A3056 RMK A01 T10431145  RH  045%=      5-min Rain = 0
KST3 112344Z 02017KT M04/M15 A3056 RMK A01 T10431146  RH  044%=      5-min Rain = 0
KST3 112345Z 02014KT M04/M15 A3056 RMK A01 T10431146  RH  044%=      5-min Rain = 0
KST3 112346Z 02016KT M04/M15 A3056 RMK A01 T10431146  RH  045%=      5-min Rain = 0
KST3 112347Z 02014KT M04/M15 A3056 RMK A01 T10441146  RH  045%=      5-min Rain = 0
KST3 112348Z 02015KT M04/M15 A3057 RMK A01 T10441146  RH  045%=      5-min Rain = 0
KST3 112349Z 02016KT M04/M15 A3057 RMK A01 T10441146  RH  045%=      5-min Rain = 0
KST3 112350Z 02014KT M04/M15 A3057 RMK A01 T10441146  RH  045%=      5-min Rain = 0
KST3 112351Z 02015KT M04/M15 A3057 RMK A01 T10441146  RH  045%=      5-min Rain = 0
KST3 112352Z 02014KT M04/M15 A3057 RMK A01 T10441146  RH  045%=      5-min Rain = 0
KST3 112353Z 02012KT M05/M15 A3057 RMK A01 T10451145  RH  045%=      5-min Rain = 0
KST3 112354Z 02013G18KT M05/M15 A3057 RMK A01 T10461145  RH  046%=      5-min Rain = 0
KST3 112355Z 02015KT M05/M15 A3057 RMK A01 T10461145  RH  046%=      5-min Rain = 0
KST3 112356Z 02013KT M05/M14 A3057 RMK A01 T10461144  RH  046%=      5-min Rain = 0
KST3 112357Z 02012KT M05/M14 A3057 RMK A01 T10461144  RH  046%=      5-min Rain = 0
KST3 112358Z 02015KT M05/M14 A3057 RMK A01 T10471144  RH  046%=      5-min Rain = 0
KST3 112359Z 02016KT M05/M14 A3057 RMK A01 T10471144  RH  046%=      5-min Rain = 0
KST3 120000Z 02016KT M05/M14 A3057 RMK A01 T10461144  RH  046%=      5-min Rain = 0
KST3 120001Z 02015KT M05/M14 A3057 RMK A01 T10461144  RH  046%=      5-min Rain = 0
KST3 120002Z 02016KT M05/M14 A3057 RMK A01 T10461144  RH  046%=      5-min Rain = 0
KST3 120003Z 02015KT M05/M14 A3057 RMK A01 T10461144  RH  046%=      5-min Rain = 0
KST3 120004Z 02015KT M05/M14 A3057 RMK A01 T10461144  RH  046%=      5-min Rain = 0
KST3 120005Z 02014KT M05/M14 A3057 RMK A01 T10471144  RH  047%=      5-min Rain = 0
KST3 120006Z 02016KT M05/M14 A3057 RMK A01 T10471144  RH  047%=      5-min Rain = 0
KST3 120007Z 02015KT M05/M14 A3057 RMK A01 T10471144  RH  047%=      5-min Rain = 0
KST3 120008Z 02016KT M05/M14 A3057 RMK A01 T10471144  RH  047%=      5-min Rain = 0
KST3 120009Z 02015KT M05/M14 A3057 RMK A01 T10471144  RH  047%=      5-min Rain = 0
KST3 120010Z 02014KT M05/M15 A3057 RMK A01 T10471145  RH  047%=      5-min Rain = 0
KST3 120011Z 02015KT M05/M15 A3057 RMK A01 T10481145  RH  047%=      5-min Rain = 0
KST3 120012Z 02016KT M05/M14 A3057 RMK A01 T10481144  RH  047%=      5-min Rain = 0
KST3 120013Z 02017KT M05/M15 A3057 RMK A01 T10481145  RH  047%=      5-min Rain = 0
KST3 120014Z 02016KT M05/M15 A3057 RMK A01 T10491145  RH  047%=      5-min Rain = 0
KST3 120015Z 02015KT M05/M15 A3057 RMK A01 T10491145  RH  047%=      5-min Rain = 0
KST3 120016Z 01013KT M05/M14 A3057 RMK A01 T10491144  RH  047%=      5-min Rain = 0
KST3 120017Z 02013KT M05/M14 A3057 RMK A01 T10491144  RH  047%=      5-min Rain = 0
KST3 120018Z 01015KT M05/M14 A3057 RMK A01 T10501144  RH  048%=      5-min Rain = 0
KST3 120019Z 01013KT M05/M14 A3057 RMK A01 T10501144  RH  048%=      5-min Rain = 0
KST3 120020Z 01012KT M05/M14 A3058 RMK A01 T10501144  RH  048%=      5-min Rain = 0
KST3 120021Z 01013KT M05/M14 A3058 RMK A01 T10511144  RH  048%=      5-min Rain = 0
KST3 120022Z 02012KT M05/M14 A3058 RMK A01 T10511144  RH  048%=      5-min Rain = 0
KST3 120023Z 01014KT M05/M14 A3058 RMK A01 T10521144  RH  048%=      5-min Rain = 0
KST3 120024Z 02013KT M05/M14 A3058 RMK A01 T10521144  RH  048%=      5-min Rain = 0
KST3 120025Z 02014KT M05/M14 A3058 RMK A01 T10521144  RH  048%=      5-min Rain = 0
KST3 120026Z 02013KT M05/M14 A3058 RMK A01 T10521144  RH  048%=      5-min Rain = 0
KST3 120027Z 02013KT M05/M14 A3058 RMK A01 T10521144  RH  048%=      5-min Rain = 0
KST3 120028Z 01014KT M05/M14 A3058 RMK A01 T10521143  RH  049%=      5-min Rain = 0
KST3 120029Z 02013KT M05/M14 A3058 RMK A01 T10521143  RH  049%=      5-min Rain = 0
KST3 120030Z 01012KT M05/M14 A3058 RMK A01 T10521143  RH  049%=      5-min Rain = 0
KST3 120031Z 01012KT M05/M14 A3058 RMK A01 T10531143  RH  049%=      5-min Rain = 0
KST3 120032Z 02013KT M05/M14 A3058 RMK A01 T10531143  RH  049%=      5-min Rain = 0
KST3 120033Z 02013KT M05/M14 A3058 RMK A01 T10541143  RH  050%=      5-min Rain = 0
KST3 120034Z 01012KT M05/M14 A3058 RMK A01 T10531142  RH  050%=      5-min Rain = 0
KST3 120035Z 01011KT M05/M14 A3058 RMK A01 T10541142  RH  050%=      5-min Rain = 0
KST3 120036Z 02012KT M06/M14 A3058 RMK A01 T10551142  RH  050%=      5-min Rain = 0
KST3 120037Z 02011KT M06/M14 A3058 RMK A01 T10551142  RH  050%=      5-min Rain = 0
KST3 120038Z 01011KT M06/M14 A3058 RMK A01 T10561142  RH  051%=      5-min Rain = 0
KST3 120039Z 01013KT M06/M14 A3058 RMK A01 T10561142  RH  051%=      5-min Rain = 0
KST3 120040Z 01012KT M06/M14 A3058 RMK A01 T10561142  RH  051%=      5-min Rain = 0
KST3 120041Z 02012KT M06/M14 A3058 RMK A01 T10561142  RH  051%=      5-min Rain = 0
KST3 120042Z 01012KT M06/M14 A3058 RMK A01 T10561142  RH  051%=      5-min Rain = 0
KST3 120043Z 02014KT M06/M14 A3058 RMK A01 T10561142  RH  051%=      5-min Rain = 0
KST3 120044Z 01011KT M06/M14 A3058 RMK A01 T10561142  RH  051%=      5-min Rain = 0
KST3 120045Z 01012KT M06/M14 A3058 RMK A01 T10561142  RH  051%=      5-min Rain = 0
KST3 120046Z 02012KT M06/M14 A3058 RMK A01 T10561142  RH  051%=      5-min Rain = 0
KST3 120047Z 02011KT M06/M14 A3058 RMK A01 T10571142  RH  051%=      5-min Rain = 0
KST3 120048Z 02011KT M06/M14 A3058 RMK A01 T10571142  RH  051%=      5-min Rain = 0
KST3 120049Z 02012KT M06/M14 A3058 RMK A01 T10571142  RH  051%=      5-min Rain = 0
KST3 120050Z 02013KT M06/M14 A3058 RMK A01 T10571142  RH  051%=      5-min Rain = 0
KST3 120051Z 02011KT M06/M14 A3059 RMK A01 T10571142  RH  051%=      5-min Rain = 0
KST3 120052Z 02012KT M06/M14 A3059 RMK A01 T10571142  RH  051%=      5-min Rain = 0
KST3 120053Z 02012KT M06/M14 A3059 RMK A01 T10581142  RH  051%=      5-min Rain = 0
KST3 120054Z 02012KT M06/M14 A3059 RMK A01 T10581142  RH  051%=      5-min Rain = 0
KST3 120055Z 02011KT M06/M14 A3059 RMK A01 T10581143  RH  051%=      5-min Rain = 0
KST3 120056Z 02012KT M06/M14 A3059 RMK A01 T10581143  RH  051%=      5-min Rain = 0
KST3 120057Z 02011KT M06/M14 A3059 RMK A01 T10581143  RH  051%=      5-min Rain = 0
KST3 120058Z 02012KT M06/M14 A3059 RMK A01 T10581143  RH  051%=      5-min Rain = 0
KST3 120059Z 02011KT M06/M14 A3059 RMK A01 T10581143  RH  051%=      5-min Rain = 0
KST3 120100Z 02010KT M06/M14 A3059 RMK A01 T10581143  RH  051%=      5-min Rain = 0
KST3 120101Z 02010KT M06/M14 A3059 RMK A01 T10591143  RH  051%=      5-min Rain = 0
KST3 120102Z 02011KT M06/M14 A3059 RMK A01 T10601143  RH  052%=      5-min Rain = 0
KST3 120103Z 02010KT M06/M14 A3059 RMK A01 T10591143  RH  052%=      5-min Rain = 0
KST3 120104Z 02009KT M06/M14 A3059 RMK A01 T10601143  RH  052%=      5-min Rain = 0
KST3 120105Z 02009KT M06/M14 A306 RMK A01 T10601143  RH  052%=      5-min Rain = 0
KST3 120106Z 02010KT M06/M14 A3059 RMK A01 T10611143  RH  052%=      5-min Rain = 0
KST3 120107Z 02009KT M06/M14 A3059 RMK A01 T10611143  RH  052%=      5-min Rain = 0
KST3 120108Z 02010KT M06/M14 A3059 RMK A01 T10621143  RH  053%=      5-min Rain = 0
KST3 120109Z 02011KT M06/M14 A306 RMK A01 T10621143  RH  053%=      5-min Rain = 0
KST3 120110Z 02011KT M06/M14 A306 RMK A01 T10621143  RH  052%=      5-min Rain = 0
KST3 120111Z 02010KT M06/M14 A306 RMK A01 T10611143  RH  052%=      5-min Rain = 0
KST3 120112Z 02010KT M06/M14 A306 RMK A01 T10621143  RH  052%=      5-min Rain = 0
KST3 120113Z 01010KT M06/M14 A306 RMK A01 T10621144  RH  052%=      5-min Rain = 0
KST3 120114Z 01011KT M06/M14 A306 RMK A01 T10621144  RH  052%=      5-min Rain = 0
KST3 120115Z 02011KT M06/M14 A306 RMK A01 T10621143  RH  052%=      5-min Rain = 0
KST3 120116Z 02012KT M06/M14 A306 RMK A01 T10621144  RH  052%=      5-min Rain = 0
KST3 120117Z 02013KT M06/M14 A306 RMK A01 T10621144  RH  052%=      5-min Rain = 0
KST3 120118Z 02012KT M06/M15 A306 RMK A01 T10621145  RH  052%=      5-min Rain = 0
KST3 120119Z 02012KT M06/M15 A306 RMK A01 T10611145  RH  051%=      5-min Rain = 0
KST3 120120Z 02012KT M06/M15 A306 RMK A01 T10601145  RH  051%=      5-min Rain = 0
KST3 120121Z 02010KT M06/M15 A306 RMK A01 T10611146  RH  051%=      5-min Rain = 0
KST3 120122Z 02009KT M06/M15 A306 RMK A01 T10611145  RH  051%=      5-min Rain = 0
KST3 120123Z 02008KT M06/M15 A306 RMK A01 T10621145  RH  052%=      5-min Rain = 0
KST3 120124Z 02009KT M06/M15 A306 RMK A01 T10631145  RH  052%=      5-min Rain = 0
KST3 120125Z 02010KT M06/M15 A306 RMK A01 T10631145  RH  052%=      5-min Rain = 0
KST3 120126Z 02010KT M06/M15 A306 RMK A01 T10631145  RH  052%=      5-min Rain = 0
KST3 120127Z 02010KT M06/M15 A306 RMK A01 T10641145  RH  053%=      5-min Rain = 0
KST3 120128Z 02010KT M06/M14 A306 RMK A01 T10641144  RH  053%=      5-min Rain = 0
KST3 120129Z 02010KT M06/M14 A306 RMK A01 T10641144  RH  053%=      5-min Rain = 0
KST3 120130Z 02011KT M07/M14 A306 RMK A01 T10651144  RH  053%=      5-min Rain = 0
KST3 120131Z 02010KT M07/M14 A306 RMK A01 T10651144  RH  053%=      5-min Rain = 0
KST3 120132Z 02010KT M06/M14 A306 RMK A01 T10641144  RH  053%=      5-min Rain = 0
KST3 120133Z 02009KT M07/M15 A306 RMK A01 T10651145  RH  053%=      5-min Rain = 0
KST3 120134Z 02010KT M07/M15 A306 RMK A01 T10651145  RH  053%=      5-min Rain = 0
KST3 120135Z 02009KT M07/M15 A306 RMK A01 T10651145  RH  053%=      5-min Rain = 0
KST3 120136Z 02009KT M07/M15 A306 RMK A01 T10651145  RH  053%=      5-min Rain = 0
KST3 120137Z 01010KT M07/M15 A306 RMK A01 T10661145  RH  053%=      5-min Rain = 0
KST3 120138Z 02009KT M07/M15 A306 RMK A01 T10661145  RH  054%=      5-min Rain = 0
KST3 120139Z 01009KT M07/M14 A306 RMK A01 T10661144  RH  054%=      5-min Rain = 0
KST3 120140Z 01010KT M07/M14 A306 RMK A01 T10671144  RH  054%=      5-min Rain = 0
KST3 120141Z 01008KT M07/M14 A306 RMK A01 T10681144  RH  055%=      5-min Rain = 0
KST3 120142Z 01009KT M07/M14 A306 RMK A01 T10691144  RH  055%=      5-min Rain = 0
KST3 120143Z 01010KT M07/M14 A306 RMK A01 T10691143  RH  055%=      5-min Rain = 0
KST3 120144Z 01010KT M07/M14 A306 RMK A01 T10691143  RH  056%=      5-min Rain = 0
KST3 120145Z 01010KT M07/M14 A306 RMK A01 T10691143  RH  055%=      5-min Rain = 0
KST3 120146Z 01009KT M07/M14 A306 RMK A01 T10691143  RH  055%=      5-min Rain = 0
KST3 120147Z 01009KT M07/M14 A306 RMK A01 T10691143  RH  055%=      5-min Rain = 0
KST3 120148Z 02008KT M07/M14 A306 RMK A01 T10691143  RH  056%=      5-min Rain = 0
KST3 120149Z 01009KT M07/M14 A306 RMK A01 T10701143  RH  056%=      5-min Rain = 0
KST3 120150Z 02009KT M07/M14 A306 RMK A01 T10711143  RH  056%=      5-min Rain = 0
KST3 120151Z 02008KT M07/M14 A306 RMK A01 T10721143  RH  057%=      5-min Rain = 0
KST3 120152Z 02008KT M07/M14 A306 RMK A01 T10721143  RH  057%=      5-min Rain = 0
KST3 120153Z 02008KT M07/M14 A306 RMK A01 T10721142  RH  057%=      5-min Rain = 0
KST3 120154Z 02008KT M07/M14 A306 RMK A01 T10721143  RH  057%=      5-min Rain = 0
KST3 120155Z 02007KT M07/M14 A306 RMK A01 T10721143  RH  057%=      5-min Rain = 0
KST3 120156Z 02007KT M07/M14 A306 RMK A01 T10731143  RH  058%=      5-min Rain = 0
KST3 120157Z 02007KT M07/M14 A3061 RMK A01 T10741143  RH  058%=      5-min Rain = 0
KST3 120158Z 02007KT M07/M14 A3061 RMK A01 T10741143  RH  058%=      5-min Rain = 0
KST3 120159Z 02008KT M08/M14 A3061 RMK A01 T10751143  RH  058%=      5-min Rain = 0
KST3 120200Z 02008KT M08/M14 A306 RMK A01 T10751143  RH  058%=      5-min Rain = 0
KST3 120201Z 02007KT M08/M14 A3061 RMK A01 T10751143  RH  058%=      5-min Rain = 0
KST3 120202Z 02009KT M08/M14 A3061 RMK A01 T10751142  RH  058%=      5-min Rain = 0
KST3 120203Z 02008KT M07/M14 A3061 RMK A01 T10741142  RH  058%=      5-min Rain = 0
KST3 120204Z 02009KT M07/M14 A3061 RMK A01 T10741142  RH  058%=      5-min Rain = 0
KST3 120205Z 02009KT M07/M14 A306 RMK A01 T10741142  RH  058%=      5-min Rain = 0
KST3 120206Z 02009KT M07/M14 A306 RMK A01 T10741142  RH  058%=      5-min Rain = 0
KST3 120207Z 01010KT M07/M14 A306 RMK A01 T10741142  RH  058%=      5-min Rain = 0
KST3 120208Z 02011KT M08/M14 A306 RMK A01 T10751142  RH  058%=      5-min Rain = 0
KST3 120209Z 02010KT M07/M14 A306 RMK A01 T10741142  RH  058%=      5-min Rain = 0
KST3 120210Z 02011KT M07/M14 A306 RMK A01 T10741142  RH  058%=      5-min Rain = 0
KST3 120211Z 02012KT M07/M14 A306 RMK A01 T10741142  RH  058%=      5-min Rain = 0
KST3 120212Z 02012KT M07/M14 A3061 RMK A01 T10741142  RH  058%=      5-min Rain = 0
KST3 120213Z 02013KT M07/M14 A3061 RMK A01 T10741143  RH  058%=      5-min Rain = 0
KST3 120214Z 02010KT M07/M14 A3061 RMK A01 T10731143  RH  057%=      5-min Rain = 0
KST3 120215Z 02011KT M07/M14 A3061 RMK A01 T10731143  RH  057%=      5-min Rain = 0
KST3 120216Z 02010KT M07/M14 A3061 RMK A01 T10741144  RH  057%=      5-min Rain = 0
KST3 120217Z 02012KT M07/M14 A3061 RMK A01 T10741144  RH  057%=      5-min Rain = 0
KST3 120218Z 02010KT M07/M14 A3061 RMK A01 T10741144  RH  057%=      5-min Rain = 0
KST3 120219Z 02010KT M07/M14 A3061 RMK A01 T10741144  RH  057%=      5-min Rain = 0
KST3 120220Z 02011KT M07/M14 A3061 RMK A01 T10741144  RH  057%=      5-min Rain = 0
KST3 120221Z 02010KT M07/M14 A3061 RMK A01 T10741144  RH  057%=      5-min Rain = 0
KST3 120222Z 02011KT M07/M14 A3061 RMK A01 T10741144  RH  057%=      5-min Rain = 0
KST3 120223Z 02010KT M07/M14 A3061 RMK A01 T10741144  RH  057%=      5-min Rain = 0
KST3 120224Z 02010KT M08/M14 A3061 RMK A01 T10751144  RH  057%=      5-min Rain = 0
KST3 120225Z 01010KT M08/M14 A3061 RMK A01 T10751144  RH  058%=      5-min Rain = 0
KST3 120226Z 02010KT M08/M14 A3061 RMK A01 T10751144  RH  058%=      5-min Rain = 0
KST3 120227Z 02012KT M08/M14 A3061 RMK A01 T10751144  RH  058%=      5-min Rain = 0
KST3 120228Z 01011KT M08/M14 A3061 RMK A01 T10751144  RH  058%=      5-min Rain = 0
KST3 120229Z 02009KT M08/M14 A3061 RMK A01 T10751144  RH  058%=      5-min Rain = 0
KST3 120230Z 01010KT M08/M15 A3061 RMK A01 T10761145  RH  058%=      5-min Rain = 0
KST3 120231Z 01009KT M08/M15 A3061 RMK A01 T10761145  RH  058%=      5-min Rain = 0
KST3 120232Z 01009KT M08/M15 A3061 RMK A01 T10771145  RH  058%=      5-min Rain = 0
KST3 120233Z 02009KT M08/M15 A3061 RMK A01 T10771145  RH  058%=      5-min Rain = 0
KST3 120234Z 02009KT M08/M14 A3062 RMK A01 T10771144  RH  059%=      5-min Rain = 0
KST3 120235Z 02009KT M08/M15 A3062 RMK A01 T10771145  RH  059%=      5-min Rain = 0
KST3 120236Z 01009KT M08/M15 A3062 RMK A01 T10781145  RH  059%=      5-min Rain = 0
KST3 120237Z 02008KT M08/M15 A3062 RMK A01 T10781145  RH  059%=      5-min Rain = 0
KST3 120238Z 02009KT M08/M14 A3062 RMK A01 T10781144  RH  059%=      5-min Rain = 0
KST3 120239Z 02010KT M08/M15 A3062 RMK A01 T10791145  RH  059%=      5-min Rain = 0
KST3 120240Z 02010KT M08/M15 A3062 RMK A01 T10791145  RH  059%=      5-min Rain = 0
KST3 120241Z 02009KT M08/M14 A3062 RMK A01 T10791144  RH  060%=      5-min Rain = 0
KST3 120242Z 02010KT M08/M14 A3062 RMK A01 T10791144  RH  060%=      5-min Rain = 0
KST3 120243Z 02010KT M08/M14 A3062 RMK A01 T10801144  RH  060%=      5-min Rain = 0
KST3 120244Z 02008KT M08/M14 A3062 RMK A01 T10801144  RH  060%=      5-min Rain = 0
KST3 120245Z 02009KT M08/M14 A3062 RMK A01 T10811144  RH  060%=      5-min Rain = 0
KST3 120246Z 02009KT M08/M14 A3062 RMK A01 T10811144  RH  060%=      5-min Rain = 0
KST3 120247Z 02010KT M08/M14 A3062 RMK A01 T10811144  RH  060%=      5-min Rain = 0
KST3 120248Z 01010KT M08/M14 A3062 RMK A01 T10811144  RH  060%=      5-min Rain = 0
KST3 120249Z 01010KT M08/M15 A3062 RMK A01 T10821145  RH  060%=      5-min Rain = 0
KST3 120250Z 01010KT M08/M14 A3062 RMK A01 T10821144  RH  061%=      5-min Rain = 0
KST3 120251Z 01009KT M08/M14 A3062 RMK A01 T10821144  RH  061%=      5-min Rain = 0
KST3 120252Z 01010KT M08/M15 A3062 RMK A01 T10831145  RH  061%=      5-min Rain = 0
KST3 120253Z 01010KT M08/M15 A3062 RMK A01 T10841145  RH  062%=      5-min Rain = 0
KST3 120254Z 01010KT M08/M14 A3062 RMK A01 T10841144  RH  062%=      5-min Rain = 0
KST3 120255Z 02009KT M08/M14 A3062 RMK A01 T10841144  RH  062%=      5-min Rain = 0
KST3 120256Z 02008KT M08/M14 A3062 RMK A01 T10841144  RH  062%=      5-min Rain = 0
KST3 120257Z 02008KT M08/M14 A3062 RMK A01 T10841144  RH  062%=      5-min Rain = 0
KST3 120258Z 02008KT M09/M14 A3062 RMK A01 T10851144  RH  062%=      5-min Rain = 0
KST3 120259Z 02008KT M09/M14 A3062 RMK A01 T10851144  RH  062%=      5-min Rain = 0
KST3 120300Z 02008KT M09/M15 A3062 RMK A01 T10851145  RH  062%=      5-min Rain = 0
KST3 120301Z 02009KT M09/M15 A3062 RMK A01 T10861145  RH  062%=      5-min Rain = 0
KST3 120302Z 02008KT M09/M15 A3062 RMK A01 T10851145  RH  062%=      5-min Rain = 0
KST3 120303Z 03007KT M09/M15 A3062 RMK A01 T10861145  RH  062%=      5-min Rain = 0
KST3 120304Z 03007KT M09/M15 A3062 RMK A01 T10861145  RH  062%=      5-min Rain = 0
KST3 120305Z 03007KT M09/M15 A3062 RMK A01 T10871146  RH  063%=      5-min Rain = 0
KST3 120306Z 02008KT M09/M15 A3062 RMK A01 T10871145  RH  063%=      5-min Rain = 0
KST3 120307Z 02009KT M09/M15 A3062 RMK A01 T10871145  RH  063%=      5-min Rain = 0
KST3 120308Z 02008KT M09/M15 A3062 RMK A01 T10861145  RH  062%=      5-min Rain = 0
KST3 120309Z 02008KT M09/M15 A3062 RMK A01 T10861145  RH  062%=      5-min Rain = 0
KST3 120310Z 02008KT M09/M15 A3062 RMK A01 T10871146  RH  062%=      5-min Rain = 0
KST3 120311Z 02008KT M09/M15 A3062 RMK A01 T10871146  RH  063%=      5-min Rain = 0
KST3 120312Z 02009KT M09/M15 A3062 RMK A01 T10881146  RH  063%=      5-min Rain = 0
KST3 120313Z 02009KT M09/M15 A3062 RMK A01 T10881145  RH  063%=      5-min Rain = 0
KST3 120314Z 02010KT M09/M15 A3062 RMK A01 T10881145  RH  063%=      5-min Rain = 0
KST3 120315Z 02010KT M09/M15 A3062 RMK A01 T10881145  RH  063%=      5-min Rain = 0
KST3 120316Z 01010KT M09/M15 A3062 RMK A01 T10881145  RH  063%=      5-min Rain = 0
KST3 120317Z 02010KT M09/M15 A3062 RMK A01 T10881145  RH  063%=      5-min Rain = 0
KST3 120318Z 01010KT M09/M15 A3062 RMK A01 T10871145  RH  063%=      5-min Rain = 0
KST3 120319Z 01010KT M09/M15 A3062 RMK A01 T10871145  RH  063%=      5-min Rain = 0
KST3 120320Z 02011KT M09/M15 A3062 RMK A01 T10871145  RH  063%=      5-min Rain = 0
KST3 120321Z 02010KT M09/M15 A3062 RMK A01 T10861145  RH  063%=      5-min Rain = 0
KST3 120322Z 01010KT M09/M15 A3063 RMK A01 T10861145  RH  062%=      5-min Rain = 0
KST3 120323Z 01010KT M09/M15 A3063 RMK A01 T10861145  RH  062%=      5-min Rain = 0
KST3 120324Z 01010KT M09/M15 A3063 RMK A01 T10871145  RH  063%=      5-min Rain = 0
KST3 120325Z 01009KT M09/M15 A3063 RMK A01 T10871145  RH  063%=      5-min Rain = 0
KST3 120326Z 01010KT M09/M15 A3063 RMK A01 T10871145  RH  063%=      5-min Rain = 0
KST3 120327Z 01010KT M09/M15 A3062 RMK A01 T10881145  RH  063%=      5-min Rain = 0
KST3 120328Z 01010KT M09/M15 A3063 RMK A01 T10891146  RH  063%=      5-min Rain = 0
KST3 120329Z 01010KT M09/M15 A3063 RMK A01 T10891146  RH  064%=      5-min Rain = 0
KST3 120330Z 01011KT M09/M15 A3063 RMK A01 T10901145  RH  064%=      5-min Rain = 0
KST3 120331Z 01011KT M09/M15 A3063 RMK A01 T10911145  RH  065%=      5-min Rain = 0
KST3 120332Z 01010KT M09/M15 A3063 RMK A01 T10891145  RH  064%=      5-min Rain = 0
KST3 120333Z 02010KT M09/M14 A3063 RMK A01 T10881144  RH  063%=      5-min Rain = 0
KST3 120334Z 02009KT M09/M15 A3063 RMK A01 T10871145  RH  063%=      5-min Rain = 0
KST3 120335Z 01009KT M09/M15 A3063 RMK A01 T10871145  RH  063%=      5-min Rain = 0
KST3 120336Z 01010KT M09/M15 A3063 RMK A01 T10881146  RH  063%=      5-min Rain = 0
KST3 120337Z 01010KT M09/M15 A3063 RMK A01 T10881146  RH  063%=      5-min Rain = 0
KST3 120338Z 01009KT M09/M15 A3062 RMK A01 T10881146  RH  063%=      5-min Rain = 0
KST3 120339Z 01009KT M09/M15 A3062 RMK A01 T10881146  RH  063%=      5-min Rain = 0
KST3 120340Z 01009KT M09/M15 A3062 RMK A01 T10891147  RH  063%=      5-min Rain = 0
KST3 120341Z 01009KT M09/M15 A3062 RMK A01 T10891147  RH  063%=      5-min Rain = 0
KST3 120342Z 01008KT M09/M15 A3062 RMK A01 T10901147  RH  064%=      5-min Rain = 0
KST3 120343Z 01009KT M09/M15 A3062 RMK A01 T10911147  RH  064%=      5-min Rain = 0
KST3 120344Z 01009KT M09/M15 A3062 RMK A01 T10921147  RH  064%=      5-min Rain = 0
KST3 120345Z 01008KT M09/M15 A3062 RMK A01 T10911147  RH  064%=      5-min Rain = 0
KST3 120346Z 01007KT M09/M15 A3062 RMK A01 T10901146  RH  064%=      5-min Rain = 0
KST3 120347Z 02007KT M09/M15 A3062 RMK A01 T10901147  RH  064%=      5-min Rain = 0
KST3 120348Z 02007KT M09/M15 A3062 RMK A01 T10911147  RH  064%=      5-min Rain = 0
KST3 120349Z 02007KT M09/M15 A3062 RMK A01 T10911148  RH  064%=      5-min Rain = 0
KST3 120350Z 01007KT M09/M15 A3062 RMK A01 T10921148  RH  064%=      5-min Rain = 0
KST3 120351Z 01008KT M09/M15 A3062 RMK A01 T10931148  RH  064%=      5-min Rain = 0
KST3 120352Z 01008KT M09/M15 A3062 RMK A01 T10941148  RH  065%=      5-min Rain = 0
KST3 120353Z 01008KT M10/M15 A3062 RMK A01 T10951148  RH  065%=      5-min Rain = 0
KST3 120354Z 02009KT M10/M15 A3062 RMK A01 T10951147  RH  066%=      5-min Rain = 0
KST3 120355Z 01010KT M10/M15 A3062 RMK A01 T10951147  RH  066%=      5-min Rain = 0
KST3 120356Z 01010KT M10/M15 A3062 RMK A01 T10951147  RH  066%=      5-min Rain = 0
KST3 120357Z 01010KT M10/M15 A3062 RMK A01 T10951147  RH  066%=      5-min Rain = 0
KST3 120358Z 01012KT M10/M15 A3062 RMK A01 T10951146  RH  066%=      5-min Rain = 0
KST3 120359Z 01012KT M10/M15 A3063 RMK A01 T10951146  RH  066%=      5-min Rain = 0
KST3 120400Z 01011KT M09/M15 A3063 RMK A01 T10931145  RH  066%=      5-min Rain = 0
KST3 120401Z 01011KT M09/M15 A3062 RMK A01 T10921145  RH  066%=      5-min Rain = 0
KST3 120402Z 01010KT M09/M15 A3062 RMK A01 T10911145  RH  065%=      5-min Rain = 0
KST3 120403Z 01010KT M09/M15 A3063 RMK A01 T10911145  RH  065%=      5-min Rain = 0
KST3 120404Z 01009KT M09/M15 A3063 RMK A01 T10911146  RH  065%=      5-min Rain = 0
KST3 120405Z 01010KT M09/M15 A3063 RMK A01 T10911146  RH  064%=      5-min Rain = 0
KST3 120406Z 01010KT M09/M15 A3063 RMK A01 T10921147  RH  064%=      5-min Rain = 0
KST3 120407Z 01009KT M09/M15 A3063 RMK A01 T10911147  RH  064%=      5-min Rain = 0
KST3 120408Z 01010KT M09/M15 A3063 RMK A01 T10921147  RH  064%=      5-min Rain = 0
KST3 120409Z 01009KT M09/M15 A3063 RMK A01 T10921147  RH  064%=      5-min Rain = 0
KST3 120410Z 01009KT M09/M15 A3063 RMK A01 T10931147  RH  065%=      5-min Rain = 0
KST3 120411Z 01009KT M09/M15 A3063 RMK A01 T10931147  RH  065%=      5-min Rain = 0
KST3 120412Z 01009KT M09/M15 A3063 RMK A01 T10941148  RH  065%=      5-min Rain = 0
KST3 120413Z 01010KT M10/M15 A3063 RMK A01 T10951148  RH  065%=      5-min Rain = 0
KST3 120414Z 01010KT M10/M15 A3063 RMK A01 T10951147  RH  066%=      5-min Rain = 0
KST3 120415Z 01009KT M10/M15 A3063 RMK A01 T10951147  RH  066%=      5-min Rain = 0
KST3 120416Z 01009KT M10/M15 A3063 RMK A01 T10951147  RH  066%=      5-min Rain = 0
KST3 120417Z 01009KT M10/M15 A3063 RMK A01 T10951147  RH  066%=      5-min Rain = 0
KST3 120418Z 02009KT M10/M15 A3063 RMK A01 T10961147  RH  066%=      5-min Rain = 0
KST3 120419Z 02009KT M10/M15 A3063 RMK A01 T10961148  RH  066%=      5-min Rain = 0
KST3 120420Z 02008KT M10/M15 A3063 RMK A01 T10961147  RH  066%=      5-min Rain = 0
KST3 120421Z 02009KT M10/M15 A3063 RMK A01 T10961147  RH  066%=      5-min Rain = 0
KST3 120422Z 02009KT M10/M15 A3063 RMK A01 T10961148  RH  066%=      5-min Rain = 0
KST3 120423Z 02009KT M10/M15 A3063 RMK A01 T10961148  RH  066%=      5-min Rain = 0
KST3 120424Z 02009KT M10/M15 A3063 RMK A01 T10961148  RH  066%=      5-min Rain = 0
KST3 120425Z 01008KT M10/M15 A3063 RMK A01 T10971149  RH  066%=      5-min Rain = 0
KST3 120426Z 01009KT M10/M15 A3063 RMK A01 T10981149  RH  066%=      5-min Rain = 0
KST3 120427Z 01009KT M10/M15 A3063 RMK A01 T10981149  RH  067%=      5-min Rain = 0
KST3 120428Z 00009KT M10/M15 A3063 RMK A01 T11001149  RH  067%=      5-min Rain = 0
KST3 120429Z 00009KT M10/M15 A3063 RMK A01 T11011149  RH  068%=      5-min Rain = 0
KST3 120430Z 00010KT M10/M15 A3062 RMK A01 T11011149  RH  068%=      5-min Rain = 0
KST3 120431Z 00009KT M10/M15 A3062 RMK A01 T11011149  RH  068%=      5-min Rain = 0
KST3 120432Z 01009KT M10/M15 A3062 RMK A01 T11021149  RH  068%=      5-min Rain = 0
KST3 120433Z 01008KT M10/M15 A3062 RMK A01 T11021149  RH  068%=      5-min Rain = 0
KST3 120434Z 01008KT M10/M15 A3062 RMK A01 T11031149  RH  069%=      5-min Rain = 0
KST3 120435Z 01008KT M10/M15 A3062 RMK A01 T11031149  RH  069%=      5-min Rain = 0
KST3 120436Z 01008KT M10/M15 A3063 RMK A01 T11041149  RH  069%=      5-min Rain = 0
KST3 120437Z 01009KT M10/M15 A3063 RMK A01 T11041149  RH  070%=      5-min Rain = 0
KST3 120438Z 01009KT M10/M15 A3063 RMK A01 T11041149  RH  070%=      5-min Rain = 0
KST3 120439Z 01010KT M10/M15 A3063 RMK A01 T11041149  RH  070%=      5-min Rain = 0
KST3 120440Z 01009KT M10/M15 A3063 RMK A01 T11031148  RH  070%=      5-min Rain = 0
KST3 120441Z 01010KT M10/M15 A3063 RMK A01 T11031148  RH  069%=      5-min Rain = 0
KST3 120442Z 01010KT M10/M15 A3063 RMK A01 T11031148  RH  069%=      5-min Rain = 0
KST3 120443Z 01010KT M10/M15 A3063 RMK A01 T11031149  RH  069%=      5-min Rain = 0
KST3 120444Z 01010KT M10/M15 A3063 RMK A01 T11031149  RH  069%=      5-min Rain = 0
KST3 120445Z 01010KT M10/M15 A3062 RMK A01 T11031149  RH  069%=      5-min Rain = 0
KST3 120446Z 01010KT M10/M15 A3062 RMK A01 T11041149  RH  069%=      5-min Rain = 0
KST3 120447Z 01010KT M10/M15 A3062 RMK A01 T11041150  RH  069%=      5-min Rain = 0
KST3 120448Z 01010KT M10/M15 A3063 RMK A01 T11041149  RH  070%=      5-min Rain = 0
KST3 120449Z 01010KT M11/M15 A3063 RMK A01 T11051150  RH  070%=      5-min Rain = 0
KST3 120450Z 01009KT M11/M15 A3063 RMK A01 T11061150  RH  070%=      5-min Rain = 0
KST3 120451Z 01009KT M11/M15 A3063 RMK A01 T11071150  RH  070%=      5-min Rain = 0
KST3 120452Z 01008KT M11/M15 A3063 RMK A01 T11081151  RH  071%=      5-min Rain = 0
KST3 120453Z 01008KT M11/M15 A3063 RMK A01 T11091151  RH  071%=      5-min Rain = 0
KST3 120454Z 01008KT M11/M15 A3063 RMK A01 T11091151  RH  071%=      5-min Rain = 0
KST3 120455Z 02007KT M11/M15 A3063 RMK A01 T11101151  RH  072%=      5-min Rain = 0
KST3 120456Z 02006KT M11/M15 A3063 RMK A01 T11091150  RH  072%=      5-min Rain = 0
KST3 120457Z 03006KT M11/M15 A3063 RMK A01 T11091150  RH  072%=      5-min Rain = 0
KST3 120458Z 03006KT M11/M15 A3063 RMK A01 T11091151  RH  071%=      5-min Rain = 0
KST3 120459Z 03006KT M11/M15 A3063 RMK A01 T11091151  RH  071%=      5-min Rain = 0
KST3 120500Z 03006KT M11/M15 A3063 RMK A01 T11091151  RH  071%=      5-min Rain = 0
KST3 120501Z 02006KT M11/M15 A3063 RMK A01 T11101152  RH  071%=      5-min Rain = 0
KST3 120502Z 02007KT M11/M15 A3063 RMK A01 T11111152  RH  071%=      5-min Rain = 0
KST3 120503Z 02007KT M11/M15 A3063 RMK A01 T11111152  RH  072%=      5-min Rain = 0
KST3 120504Z 02008KT M11/M15 A3063 RMK A01 T11131153  RH  072%=      5-min Rain = 0
KST3 120505Z 02008KT M11/M15 A3063 RMK A01 T11131153  RH  073%=      5-min Rain = 0
KST3 120506Z 02008KT M11/M15 A3062 RMK A01 T11131152  RH  073%=      5-min Rain = 0
KST3 120507Z 02008KT M11/M15 A3062 RMK A01 T11141152  RH  073%=      5-min Rain = 0
KST3 120508Z 01008KT M11/M15 A3062 RMK A01 T11141152  RH  073%=      5-min Rain = 0
KST3 120509Z 01009KT M11/M15 A3062 RMK A01 T11141152  RH  073%=      5-min Rain = 0
KST3 120510Z 01008KT M11/M15 A3062 RMK A01 T11141152  RH  074%=      5-min Rain = 0
KST3 120511Z 01008KT M12/M15 A3062 RMK A01 T11151152  RH  074%=      5-min Rain = 0
KST3 120512Z 01008KT M12/M15 A3062 RMK A01 T11151152  RH  074%=      5-min Rain = 0
KST3 120513Z 01008KT M12/M15 A3062 RMK A01 T11151151  RH  074%=      5-min Rain = 0
KST3 120514Z 01008KT M11/M15 A3062 RMK A01 T11141151  RH  074%=      5-min Rain = 0
KST3 120515Z 01008KT M11/M15 A3062 RMK A01 T11141150  RH  074%=      5-min Rain = 0
KST3 120516Z 01008KT M11/M15 A3062 RMK A01 T11141150  RH  074%=      5-min Rain = 0
KST3 120517Z 01009KT M11/M15 A3062 RMK A01 T11131150  RH  075%=      5-min Rain = 0
KST3 120518Z 01009KT M11/M15 A3062 RMK A01 T11131149  RH  075%=      5-min Rain = 0
KST3 120519Z 01011KT M11/M15 A3062 RMK A01 T11121148  RH  075%=      5-min Rain = 0
KST3 120520Z 01011KT M11/M15 A3062 RMK A01 T11111148  RH  074%=      5-min Rain = 0
KST3 120521Z 01011KT M11/M15 A3062 RMK A01 T11101148  RH  074%=      5-min Rain = 0
KST3 120522Z 01011KT M11/M15 A3062 RMK A01 T11091148  RH  073%=      5-min Rain = 0
KST3 120523Z 01011KT M11/M15 A3062 RMK A01 T11081148  RH  072%=      5-min Rain = 0
KST3 120524Z 01011KT M11/M15 A3062 RMK A01 T11081149  RH  072%=      5-min Rain = 0
KST3 120525Z 01011KT M11/M15 A3062 RMK A01 T11081149  RH  072%=      5-min Rain = 0
KST3 120526Z 01011KT M11/M15 A3062 RMK A01 T11081149  RH  072%=      5-min Rain = 0
KST3 120527Z 01011KT M11/M15 A3062 RMK A01 T11081150  RH  071%=      5-min Rain = 0
KST3 120528Z 00010KT M11/M15 A3062 RMK A01 T11081150  RH  071%=      5-min Rain = 0
KST3 120529Z 01010KT M11/M15 A3062 RMK A01 T11081150  RH  071%=      5-min Rain = 0
KST3 120530Z 00010KT M11/M15 A3062 RMK A01 T11081150  RH  071%=      5-min Rain = 0
KST3 120531Z 00011KT M11/M15 A3062 RMK A01 T11081150  RH  071%=      5-min Rain = 0
KST3 120532Z 00011KT M11/M15 A3062 RMK A01 T11081150  RH  071%=      5-min Rain = 0
KST3 120533Z 00011KT M11/M15 A3062 RMK A01 T11071150  RH  070%=      5-min Rain = 0
KST3 120534Z 00011KT M11/M15 A3062 RMK A01 T11071151  RH  070%=      5-min Rain = 0
KST3 120535Z 00010KT M11/M15 A3062 RMK A01 T11071151  RH  070%=      5-min Rain = 0
KST3 120536Z 00011KT M11/M15 A3062 RMK A01 T11071151  RH  070%=      5-min Rain = 0
KST3 120537Z 00010KT M11/M15 A3062 RMK A01 T11071151  RH  070%=      5-min Rain = 0
KST3 120538Z 00010KT M11/M15 A3062 RMK A01 T11081151  RH  070%=      5-min Rain = 0
KST3 120539Z 00011KT M11/M15 A3062 RMK A01 T11081151  RH  070%=      5-min Rain = 0
KST3 120540Z 00011KT M11/M15 A3062 RMK A01 T11081151  RH  071%=      5-min Rain = 0
KST3 120541Z 01011KT M11/M15 A3062 RMK A01 T11091151  RH  071%=      5-min Rain = 0
KST3 120542Z 01011KT M11/M15 A3061 RMK A01 T11091152  RH  071%=      5-min Rain = 0
KST3 120543Z 01011KT M11/M15 A3061 RMK A01 T11101152  RH  071%=      5-min Rain = 0
KST3 120544Z 01011KT M11/M15 A3061 RMK A01 T11111152  RH  071%=      5-min Rain = 0
KST3 120545Z 01011KT M11/M15 A3061 RMK A01 T11111152  RH  072%=      5-min Rain = 0
KST3 120546Z 01010KT M11/M15 A3061 RMK A01 T11111152  RH  072%=      5-min Rain = 0
KST3 120547Z 01010KT M11/M15 A3061 RMK A01 T11121152  RH  072%=      5-min Rain = 0
KST3 120548Z 00009KT M11/M15 A3061 RMK A01 T11121152  RH  072%=      5-min Rain = 0
KST3 120549Z 00010KT M11/M15 A3061 RMK A01 T11131153  RH  072%=      5-min Rain = 0
KST3 120550Z 00009KT M11/M15 A3061 RMK A01 T11131153  RH  072%=      5-min Rain = 0
KST3 120551Z 00009KT M11/M15 A3062 RMK A01 T11131153  RH  072%=      5-min Rain = 0
KST3 120552Z 00009KT M11/M15 A3062 RMK A01 T11131153  RH  072%=      5-min Rain = 0
KST3 120553Z 00009KT M11/M15 A3062 RMK A01 T11141154  RH  073%=      5-min Rain = 0
KST3 120554Z 00009KT M11/M15 A3062 RMK A01 T11141153  RH  073%=      5-min Rain = 0
KST3 120555Z 01008KT M11/M15 A3062 RMK A01 T11141153  RH  073%=      5-min Rain = 0
KST3 120556Z 01008KT M12/M15 A3062 RMK A01 T11151154  RH  073%=      5-min Rain = 0
KST3 120557Z 01008KT M12/M15 A3062 RMK A01 T11151154  RH  073%=      5-min Rain = 0
KST3 120558Z 01007KT M12/M15 A3062 RMK A01 T11151154  RH  073%=      5-min Rain = 0
KST3 120559Z 01007KT M12/M15 A3062 RMK A01 T11161154  RH  073%=      5-min Rain = 0

Page generated in 0.0782 seconds.